<?xml version="1.0" encoding="UTF-8" standalone="no" ?>
<gpx xmlns="http://www.topografix.com/GPX/1/1" xmlns:xsi="http://www.w3.org/2001/XMLSchema-instance" xsi:schemaLocation="http://www.topografix.com/GPX/1/1 http://www.topografix.com/GPX/1/1/gpx.xsd" version="1.1" creator="VisuGPX - https://www.visugpx.com">
  <metadata>
    <name>samuscup201601</name>
    <desc><![CDATA[première nav 
avec Marie Laure et Djamila
axa assistance france]]></desc>
  </metadata>
  <trk>
    <name><![CDATA[Tracé actuel: 22 MAI 2016 09:52]]></name>
    <trkseg>
      <trkpt lat="43.13518" lon="5.75525">
        <ele>-1.79</ele>
        <time>2016-05-22T07:52:22Z</time>
      </trkpt>
      <trkpt lat="43.13516" lon="5.75526">
        <ele>-0.82</ele>
        <time>2016-05-22T07:52:47Z</time>
      </trkpt>
      <trkpt lat="43.13516" lon="5.75527">
        <ele>-0.82</ele>
        <time>2016-05-22T07:52:57Z</time>
      </trkpt>
      <trkpt lat="43.13515" lon="5.75528">
        <ele>1.58</ele>
        <time>2016-05-22T07:53:14Z</time>
      </trkpt>
      <trkpt lat="43.13515" lon="5.75528">
        <ele>1.1</ele>
        <time>2016-05-22T07:53:43Z</time>
      </trkpt>
      <trkpt lat="43.13515" lon="5.75527">
        <ele>2.06</ele>
        <time>2016-05-22T07:54:17Z</time>
      </trkpt>
      <trkpt lat="43.13516" lon="5.75527">
        <ele>3.5</ele>
        <time>2016-05-22T07:54:46Z</time>
      </trkpt>
      <trkpt lat="43.13516" lon="5.75527">
        <ele>3.5</ele>
        <time>2016-05-22T07:55:15Z</time>
      </trkpt>
      <trkpt lat="43.13516" lon="5.75527">
        <ele>3.98</ele>
        <time>2016-05-22T07:55:44Z</time>
      </trkpt>
      <trkpt lat="43.13516" lon="5.75528">
        <ele>3.98</ele>
        <time>2016-05-22T07:56:24Z</time>
      </trkpt>
      <trkpt lat="43.13516" lon="5.75528">
        <ele>3.98</ele>
        <time>2016-05-22T07:56:49Z</time>
      </trkpt>
      <trkpt lat="43.13517" lon="5.75528">
        <ele>3.02</ele>
        <time>2016-05-22T07:57:24Z</time>
      </trkpt>
      <trkpt lat="43.13517" lon="5.75528">
        <ele>3.02</ele>
        <time>2016-05-22T07:57:55Z</time>
      </trkpt>
      <trkpt lat="43.13517" lon="5.75528">
        <ele>2.54</ele>
        <time>2016-05-22T07:58:27Z</time>
      </trkpt>
      <trkpt lat="43.13517" lon="5.75528">
        <ele>2.54</ele>
        <time>2016-05-22T07:58:55Z</time>
      </trkpt>
      <trkpt lat="43.13516" lon="5.75528">
        <ele>2.54</ele>
        <time>2016-05-22T07:59:24Z</time>
      </trkpt>
      <trkpt lat="43.13517" lon="5.75528">
        <ele>2.54</ele>
        <time>2016-05-22T07:59:52Z</time>
      </trkpt>
      <trkpt lat="43.13517" lon="5.75527">
        <ele>3.02</ele>
        <time>2016-05-22T08:00:22Z</time>
      </trkpt>
      <trkpt lat="43.13517" lon="5.75528">
        <ele>3.02</ele>
        <time>2016-05-22T08:00:52Z</time>
      </trkpt>
      <trkpt lat="43.13517" lon="5.75528">
        <ele>3.02</ele>
        <time>2016-05-22T08:01:12Z</time>
      </trkpt>
      <trkpt lat="43.13516" lon="5.75528">
        <ele>3.02</ele>
        <time>2016-05-22T08:01:38Z</time>
      </trkpt>
      <trkpt lat="43.13516" lon="5.75529">
        <ele>3.02</ele>
        <time>2016-05-22T08:02:08Z</time>
      </trkpt>
      <trkpt lat="43.13515" lon="5.75528">
        <ele>3.5</ele>
        <time>2016-05-22T08:02:34Z</time>
      </trkpt>
      <trkpt lat="43.13515" lon="5.75527">
        <ele>3.5</ele>
        <time>2016-05-22T08:02:57Z</time>
      </trkpt>
      <trkpt lat="43.13516" lon="5.75527">
        <ele>3.98</ele>
        <time>2016-05-22T08:03:24Z</time>
      </trkpt>
      <trkpt lat="43.13515" lon="5.75528">
        <ele>3.98</ele>
        <time>2016-05-22T08:03:50Z</time>
      </trkpt>
      <trkpt lat="43.13515" lon="5.75528">
        <ele>3.98</ele>
        <time>2016-05-22T08:04:20Z</time>
      </trkpt>
      <trkpt lat="43.13515" lon="5.75527">
        <ele>3.98</ele>
        <time>2016-05-22T08:04:41Z</time>
      </trkpt>
      <trkpt lat="43.13515" lon="5.75527">
        <ele>3.98</ele>
        <time>2016-05-22T08:05:06Z</time>
      </trkpt>
      <trkpt lat="43.13516" lon="5.75527">
        <ele>4.46</ele>
        <time>2016-05-22T08:05:31Z</time>
      </trkpt>
      <trkpt lat="43.13516" lon="5.75527">
        <ele>4.46</ele>
        <time>2016-05-22T08:06:00Z</time>
      </trkpt>
      <trkpt lat="43.13516" lon="5.75528">
        <ele>3.5</ele>
        <time>2016-05-22T08:06:28Z</time>
      </trkpt>
      <trkpt lat="43.13516" lon="5.75527">
        <ele>3.5</ele>
        <time>2016-05-22T08:06:59Z</time>
      </trkpt>
      <trkpt lat="43.13516" lon="5.75527">
        <ele>3.5</ele>
        <time>2016-05-22T08:07:30Z</time>
      </trkpt>
      <trkpt lat="43.13518" lon="5.75522">
        <ele>3.5</ele>
        <time>2016-05-22T08:08:01Z</time>
      </trkpt>
      <trkpt lat="43.13517" lon="5.75504">
        <ele>3.98</ele>
        <time>2016-05-22T08:08:18Z</time>
      </trkpt>
      <trkpt lat="43.13501" lon="5.75491">
        <ele>3.98</ele>
        <time>2016-05-22T08:08:36Z</time>
      </trkpt>
      <trkpt lat="43.13484" lon="5.75475">
        <ele>4.94</ele>
        <time>2016-05-22T08:08:52Z</time>
      </trkpt>
      <trkpt lat="43.13465" lon="5.75461">
        <ele>3.02</ele>
        <time>2016-05-22T08:09:07Z</time>
      </trkpt>
      <trkpt lat="43.13441" lon="5.75468">
        <ele>3.02</ele>
        <time>2016-05-22T08:09:28Z</time>
      </trkpt>
      <trkpt lat="43.13419" lon="5.75497">
        <ele>3.98</ele>
        <time>2016-05-22T08:09:58Z</time>
      </trkpt>
      <trkpt lat="43.13404" lon="5.7553">
        <ele>2.06</ele>
        <time>2016-05-22T08:10:26Z</time>
      </trkpt>
      <trkpt lat="43.13388" lon="5.75564">
        <ele>1.1</ele>
        <time>2016-05-22T08:10:56Z</time>
      </trkpt>
      <trkpt lat="43.13369" lon="5.7559">
        <ele>3.02</ele>
        <time>2016-05-22T08:11:25Z</time>
      </trkpt>
      <trkpt lat="43.13361" lon="5.75598">
        <ele>2.54</ele>
        <time>2016-05-22T08:11:37Z</time>
      </trkpt>
      <trkpt lat="43.13335" lon="5.75628">
        <ele>2.06</ele>
        <time>2016-05-22T08:12:01Z</time>
      </trkpt>
      <trkpt lat="43.13319" lon="5.75674">
        <ele>2.06</ele>
        <time>2016-05-22T08:12:25Z</time>
      </trkpt>
      <trkpt lat="43.13326" lon="5.75724">
        <ele>0.62</ele>
        <time>2016-05-22T08:12:52Z</time>
      </trkpt>
      <trkpt lat="43.1333" lon="5.75761">
        <ele>0.14</ele>
        <time>2016-05-22T08:13:14Z</time>
      </trkpt>
      <trkpt lat="43.13332" lon="5.75784">
        <ele>-0.34</ele>
        <time>2016-05-22T08:13:33Z</time>
      </trkpt>
      <trkpt lat="43.13334" lon="5.75803">
        <ele>0.62</ele>
        <time>2016-05-22T08:13:50Z</time>
      </trkpt>
      <trkpt lat="43.13335" lon="5.75824">
        <ele>0.14</ele>
        <time>2016-05-22T08:14:09Z</time>
      </trkpt>
      <trkpt lat="43.13338" lon="5.75845">
        <ele>1.1</ele>
        <time>2016-05-22T08:14:30Z</time>
      </trkpt>
      <trkpt lat="43.13339" lon="5.75856">
        <ele>1.1</ele>
        <time>2016-05-22T08:14:40Z</time>
      </trkpt>
      <trkpt lat="43.13328" lon="5.75895">
        <ele>0.14</ele>
        <time>2016-05-22T08:15:00Z</time>
      </trkpt>
      <trkpt lat="43.13319" lon="5.75935">
        <ele>-0.82</ele>
        <time>2016-05-22T08:15:18Z</time>
      </trkpt>
      <trkpt lat="43.13308" lon="5.75968">
        <ele>-0.82</ele>
        <time>2016-05-22T08:15:34Z</time>
      </trkpt>
      <trkpt lat="43.13299" lon="5.76003">
        <ele>0.14</ele>
        <time>2016-05-22T08:15:53Z</time>
      </trkpt>
      <trkpt lat="43.13297" lon="5.76013">
        <ele>0.14</ele>
        <time>2016-05-22T08:15:59Z</time>
      </trkpt>
      <trkpt lat="43.13296" lon="5.76022">
        <ele>-0.34</ele>
        <time>2016-05-22T08:16:05Z</time>
      </trkpt>
      <trkpt lat="43.13289" lon="5.76048">
        <ele>0.14</ele>
        <time>2016-05-22T08:16:22Z</time>
      </trkpt>
      <trkpt lat="43.13284" lon="5.76066">
        <ele>0.14</ele>
        <time>2016-05-22T08:16:37Z</time>
      </trkpt>
      <trkpt lat="43.13282" lon="5.76083">
        <ele>0.62</ele>
        <time>2016-05-22T08:16:52Z</time>
      </trkpt>
      <trkpt lat="43.13278" lon="5.76099">
        <ele>-0.34</ele>
        <time>2016-05-22T08:17:08Z</time>
      </trkpt>
      <trkpt lat="43.13272" lon="5.76114">
        <ele>-0.34</ele>
        <time>2016-05-22T08:17:25Z</time>
      </trkpt>
      <trkpt lat="43.13262" lon="5.76129">
        <ele>0.14</ele>
        <time>2016-05-22T08:17:45Z</time>
      </trkpt>
      <trkpt lat="43.13256" lon="5.76142">
        <ele>0.14</ele>
        <time>2016-05-22T08:18:01Z</time>
      </trkpt>
      <trkpt lat="43.13254" lon="5.7615">
        <ele>0.14</ele>
        <time>2016-05-22T08:18:10Z</time>
      </trkpt>
      <trkpt lat="43.13252" lon="5.76168">
        <ele>0.14</ele>
        <time>2016-05-22T08:18:27Z</time>
      </trkpt>
      <trkpt lat="43.13251" lon="5.7618">
        <ele>0.62</ele>
        <time>2016-05-22T08:18:41Z</time>
      </trkpt>
      <trkpt lat="43.13248" lon="5.76194">
        <ele>1.1</ele>
        <time>2016-05-22T08:18:55Z</time>
      </trkpt>
      <trkpt lat="43.13246" lon="5.76198">
        <ele>1.58</ele>
        <time>2016-05-22T08:19:00Z</time>
      </trkpt>
      <trkpt lat="43.13245" lon="5.76209">
        <ele>-0.82</ele>
        <time>2016-05-22T08:19:13Z</time>
      </trkpt>
      <trkpt lat="43.13241" lon="5.76218">
        <ele>0.62</ele>
        <time>2016-05-22T08:19:26Z</time>
      </trkpt>
      <trkpt lat="43.13233" lon="5.76224">
        <ele>0.62</ele>
        <time>2016-05-22T08:19:40Z</time>
      </trkpt>
      <trkpt lat="43.13231" lon="5.76234">
        <ele>1.58</ele>
        <time>2016-05-22T08:19:55Z</time>
      </trkpt>
      <trkpt lat="43.1323" lon="5.76239">
        <ele>1.1</ele>
        <time>2016-05-22T08:20:03Z</time>
      </trkpt>
      <trkpt lat="43.13228" lon="5.76248">
        <ele>0.62</ele>
        <time>2016-05-22T08:20:15Z</time>
      </trkpt>
      <trkpt lat="43.13228" lon="5.76258">
        <ele>0.14</ele>
        <time>2016-05-22T08:20:29Z</time>
      </trkpt>
      <trkpt lat="43.13227" lon="5.76267">
        <ele>-0.34</ele>
        <time>2016-05-22T08:20:44Z</time>
      </trkpt>
      <trkpt lat="43.13228" lon="5.76276">
        <ele>-0.34</ele>
        <time>2016-05-22T08:20:57Z</time>
      </trkpt>
      <trkpt lat="43.13228" lon="5.76288">
        <ele>0.14</ele>
        <time>2016-05-22T08:21:13Z</time>
      </trkpt>
      <trkpt lat="43.13226" lon="5.763">
        <ele>1.1</ele>
        <time>2016-05-22T08:21:29Z</time>
      </trkpt>
      <trkpt lat="43.13225" lon="5.76314">
        <ele>0.14</ele>
        <time>2016-05-22T08:21:48Z</time>
      </trkpt>
      <trkpt lat="43.13225" lon="5.76318">
        <ele>-0.34</ele>
        <time>2016-05-22T08:21:54Z</time>
      </trkpt>
      <trkpt lat="43.13224" lon="5.76324">
        <ele>-0.82</ele>
        <time>2016-05-22T08:22:00Z</time>
      </trkpt>
      <trkpt lat="43.13223" lon="5.76326">
        <ele>-1.3</ele>
        <time>2016-05-22T08:22:02Z</time>
      </trkpt>
      <trkpt lat="43.1322" lon="5.76333">
        <ele>-0.82</ele>
        <time>2016-05-22T08:22:13Z</time>
      </trkpt>
      <trkpt lat="43.13219" lon="5.76339">
        <ele>-0.82</ele>
        <time>2016-05-22T08:22:26Z</time>
      </trkpt>
      <trkpt lat="43.13217" lon="5.76345">
        <ele>-1.3</ele>
        <time>2016-05-22T08:22:39Z</time>
      </trkpt>
      <trkpt lat="43.13216" lon="5.7635">
        <ele>-0.34</ele>
        <time>2016-05-22T08:22:49Z</time>
      </trkpt>
      <trkpt lat="43.13214" lon="5.76358">
        <ele>-0.82</ele>
        <time>2016-05-22T08:23:02Z</time>
      </trkpt>
      <trkpt lat="43.13213" lon="5.76367">
        <ele>-1.3</ele>
        <time>2016-05-22T08:23:19Z</time>
      </trkpt>
      <trkpt lat="43.13212" lon="5.76369">
        <ele>-1.3</ele>
        <time>2016-05-22T08:23:23Z</time>
      </trkpt>
      <trkpt lat="43.1321" lon="5.7637">
        <ele>-1.3</ele>
        <time>2016-05-22T08:23:25Z</time>
      </trkpt>
      <trkpt lat="43.13208" lon="5.76375">
        <ele>0.62</ele>
        <time>2016-05-22T08:23:34Z</time>
      </trkpt>
      <trkpt lat="43.13207" lon="5.76377">
        <ele>0.62</ele>
        <time>2016-05-22T08:23:38Z</time>
      </trkpt>
      <trkpt lat="43.13209" lon="5.76378">
        <ele>-0.34</ele>
        <time>2016-05-22T08:23:43Z</time>
      </trkpt>
      <trkpt lat="43.13201" lon="5.76397">
        <ele>-0.34</ele>
        <time>2016-05-22T08:23:56Z</time>
      </trkpt>
      <trkpt lat="43.13201" lon="5.76398">
        <ele>-0.34</ele>
        <time>2016-05-22T08:23:57Z</time>
      </trkpt>
      <trkpt lat="43.13199" lon="5.76403">
        <ele>-0.34</ele>
        <time>2016-05-22T08:24:00Z</time>
      </trkpt>
      <trkpt lat="43.13196" lon="5.76418">
        <ele>-1.79</ele>
        <time>2016-05-22T08:24:12Z</time>
      </trkpt>
      <trkpt lat="43.13194" lon="5.76424">
        <ele>-1.3</ele>
        <time>2016-05-22T08:24:17Z</time>
      </trkpt>
      <trkpt lat="43.13192" lon="5.76432">
        <ele>0.14</ele>
        <time>2016-05-22T08:24:25Z</time>
      </trkpt>
      <trkpt lat="43.13188" lon="5.76449">
        <ele>0.62</ele>
        <time>2016-05-22T08:24:41Z</time>
      </trkpt>
      <trkpt lat="43.13187" lon="5.76453">
        <ele>1.1</ele>
        <time>2016-05-22T08:24:45Z</time>
      </trkpt>
      <trkpt lat="43.13186" lon="5.76461">
        <ele>0.14</ele>
        <time>2016-05-22T08:24:56Z</time>
      </trkpt>
      <trkpt lat="43.13185" lon="5.76464">
        <ele>-0.82</ele>
        <time>2016-05-22T08:24:59Z</time>
      </trkpt>
      <trkpt lat="43.13182" lon="5.76473">
        <ele>0.14</ele>
        <time>2016-05-22T08:25:09Z</time>
      </trkpt>
      <trkpt lat="43.13178" lon="5.76485">
        <ele>1.1</ele>
        <time>2016-05-22T08:25:22Z</time>
      </trkpt>
      <trkpt lat="43.13176" lon="5.76497">
        <ele>0.62</ele>
        <time>2016-05-22T08:25:34Z</time>
      </trkpt>
      <trkpt lat="43.13175" lon="5.7651">
        <ele>-0.82</ele>
        <time>2016-05-22T08:25:47Z</time>
      </trkpt>
      <trkpt lat="43.13176" lon="5.76512">
        <ele>-1.3</ele>
        <time>2016-05-22T08:25:50Z</time>
      </trkpt>
      <trkpt lat="43.13175" lon="5.76524">
        <ele>-1.3</ele>
        <time>2016-05-22T08:26:03Z</time>
      </trkpt>
      <trkpt lat="43.13176" lon="5.76532">
        <ele>-0.34</ele>
        <time>2016-05-22T08:26:15Z</time>
      </trkpt>
      <trkpt lat="43.13173" lon="5.76538">
        <ele>-0.34</ele>
        <time>2016-05-22T08:26:24Z</time>
      </trkpt>
      <trkpt lat="43.13155" lon="5.76555">
        <ele>0.14</ele>
        <time>2016-05-22T08:26:42Z</time>
      </trkpt>
      <trkpt lat="43.13148" lon="5.76563">
        <ele>0.62</ele>
        <time>2016-05-22T08:26:49Z</time>
      </trkpt>
      <trkpt lat="43.13141" lon="5.76582">
        <ele>1.1</ele>
        <time>2016-05-22T08:27:04Z</time>
      </trkpt>
      <trkpt lat="43.13135" lon="5.76595">
        <ele>0.62</ele>
        <time>2016-05-22T08:27:16Z</time>
      </trkpt>
      <trkpt lat="43.13127" lon="5.76611">
        <ele>-0.34</ele>
        <time>2016-05-22T08:27:31Z</time>
      </trkpt>
      <trkpt lat="43.13123" lon="5.76617">
        <ele>-0.34</ele>
        <time>2016-05-22T08:27:36Z</time>
      </trkpt>
      <trkpt lat="43.13117" lon="5.76631">
        <ele>-0.82</ele>
        <time>2016-05-22T08:27:46Z</time>
      </trkpt>
      <trkpt lat="43.13114" lon="5.76636">
        <ele>-2.75</ele>
        <time>2016-05-22T08:27:55Z</time>
      </trkpt>
      <trkpt lat="43.13108" lon="5.76648">
        <ele>-1.79</ele>
        <time>2016-05-22T08:28:08Z</time>
      </trkpt>
      <trkpt lat="43.13108" lon="5.76649">
        <ele>-1.79</ele>
        <time>2016-05-22T08:28:09Z</time>
      </trkpt>
      <trkpt lat="43.13099" lon="5.7666">
        <ele>-0.82</ele>
        <time>2016-05-22T08:28:19Z</time>
      </trkpt>
      <trkpt lat="43.13096" lon="5.76663">
        <ele>-1.79</ele>
        <time>2016-05-22T08:28:23Z</time>
      </trkpt>
      <trkpt lat="43.13084" lon="5.76685">
        <ele>-0.82</ele>
        <time>2016-05-22T08:28:39Z</time>
      </trkpt>
      <trkpt lat="43.13074" lon="5.76702">
        <ele>-1.3</ele>
        <time>2016-05-22T08:28:52Z</time>
      </trkpt>
      <trkpt lat="43.13059" lon="5.76716">
        <ele>0.14</ele>
        <time>2016-05-22T08:29:05Z</time>
      </trkpt>
      <trkpt lat="43.13039" lon="5.7674">
        <ele>1.1</ele>
        <time>2016-05-22T08:29:22Z</time>
      </trkpt>
      <trkpt lat="43.1303" lon="5.76761">
        <ele>1.58</ele>
        <time>2016-05-22T08:29:36Z</time>
      </trkpt>
      <trkpt lat="43.13029" lon="5.76765">
        <ele>1.58</ele>
        <time>2016-05-22T08:29:39Z</time>
      </trkpt>
      <trkpt lat="43.13012" lon="5.76786">
        <ele>0.62</ele>
        <time>2016-05-22T08:29:57Z</time>
      </trkpt>
      <trkpt lat="43.13011" lon="5.76787">
        <ele>0.62</ele>
        <time>2016-05-22T08:29:58Z</time>
      </trkpt>
      <trkpt lat="43.13008" lon="5.76792">
        <ele>0.14</ele>
        <time>2016-05-22T08:30:02Z</time>
      </trkpt>
      <trkpt lat="43.13005" lon="5.76801">
        <ele>-0.34</ele>
        <time>2016-05-22T08:30:08Z</time>
      </trkpt>
      <trkpt lat="43.13004" lon="5.76808">
        <ele>-1.3</ele>
        <time>2016-05-22T08:30:12Z</time>
      </trkpt>
      <trkpt lat="43.13004" lon="5.76812">
        <ele>-1.79</ele>
        <time>2016-05-22T08:30:15Z</time>
      </trkpt>
      <trkpt lat="43.13006" lon="5.76817">
        <ele>-1.3</ele>
        <time>2016-05-22T08:30:19Z</time>
      </trkpt>
      <trkpt lat="43.1301" lon="5.76821">
        <ele>-1.3</ele>
        <time>2016-05-22T08:30:23Z</time>
      </trkpt>
      <trkpt lat="43.1302" lon="5.7682">
        <ele>-1.3</ele>
        <time>2016-05-22T08:30:30Z</time>
      </trkpt>
      <trkpt lat="43.13036" lon="5.76794">
        <ele>-0.82</ele>
        <time>2016-05-22T08:30:45Z</time>
      </trkpt>
      <trkpt lat="43.13047" lon="5.76758">
        <ele>-0.34</ele>
        <time>2016-05-22T08:31:01Z</time>
      </trkpt>
      <trkpt lat="43.13048" lon="5.7672">
        <ele>0.62</ele>
        <time>2016-05-22T08:31:14Z</time>
      </trkpt>
      <trkpt lat="43.13041" lon="5.76659">
        <ele>2.54</ele>
        <time>2016-05-22T08:31:32Z</time>
      </trkpt>
      <trkpt lat="43.13028" lon="5.76608">
        <ele>1.1</ele>
        <time>2016-05-22T08:31:47Z</time>
      </trkpt>
      <trkpt lat="43.13016" lon="5.76573">
        <ele>1.1</ele>
        <time>2016-05-22T08:31:58Z</time>
      </trkpt>
      <trkpt lat="43.13003" lon="5.76518">
        <ele>2.06</ele>
        <time>2016-05-22T08:32:14Z</time>
      </trkpt>
      <trkpt lat="43.13004" lon="5.76467">
        <ele>1.58</ele>
        <time>2016-05-22T08:32:28Z</time>
      </trkpt>
      <trkpt lat="43.13" lon="5.76423">
        <ele>1.58</ele>
        <time>2016-05-22T08:32:40Z</time>
      </trkpt>
      <trkpt lat="43.13003" lon="5.76372">
        <ele>0.14</ele>
        <time>2016-05-22T08:32:54Z</time>
      </trkpt>
      <trkpt lat="43.13012" lon="5.76322">
        <ele>-0.82</ele>
        <time>2016-05-22T08:33:08Z</time>
      </trkpt>
      <trkpt lat="43.13016" lon="5.76269">
        <ele>0.14</ele>
        <time>2016-05-22T08:33:23Z</time>
      </trkpt>
      <trkpt lat="43.13012" lon="5.76216">
        <ele>-0.34</ele>
        <time>2016-05-22T08:33:38Z</time>
      </trkpt>
      <trkpt lat="43.12989" lon="5.76162">
        <ele>-0.34</ele>
        <time>2016-05-22T08:33:55Z</time>
      </trkpt>
      <trkpt lat="43.12963" lon="5.7612">
        <ele>0.14</ele>
        <time>2016-05-22T08:34:10Z</time>
      </trkpt>
      <trkpt lat="43.12937" lon="5.76085">
        <ele>0.62</ele>
        <time>2016-05-22T08:34:24Z</time>
      </trkpt>
      <trkpt lat="43.12905" lon="5.76058">
        <ele>0.62</ele>
        <time>2016-05-22T08:34:38Z</time>
      </trkpt>
      <trkpt lat="43.12894" lon="5.76024">
        <ele>0.14</ele>
        <time>2016-05-22T08:34:49Z</time>
      </trkpt>
      <trkpt lat="43.12882" lon="5.75985">
        <ele>0.14</ele>
        <time>2016-05-22T08:35:03Z</time>
      </trkpt>
      <trkpt lat="43.12876" lon="5.75949">
        <ele>0.62</ele>
        <time>2016-05-22T08:35:17Z</time>
      </trkpt>
      <trkpt lat="43.12869" lon="5.7592">
        <ele>-1.3</ele>
        <time>2016-05-22T08:35:29Z</time>
      </trkpt>
      <trkpt lat="43.12859" lon="5.75883">
        <ele>0.14</ele>
        <time>2016-05-22T08:35:44Z</time>
      </trkpt>
      <trkpt lat="43.12842" lon="5.75855">
        <ele>1.58</ele>
        <time>2016-05-22T08:35:58Z</time>
      </trkpt>
      <trkpt lat="43.12825" lon="5.75833">
        <ele>1.1</ele>
        <time>2016-05-22T08:36:11Z</time>
      </trkpt>
      <trkpt lat="43.12815" lon="5.75832">
        <ele>0.62</ele>
        <time>2016-05-22T08:36:17Z</time>
      </trkpt>
      <trkpt lat="43.12809" lon="5.75847">
        <ele>-0.34</ele>
        <time>2016-05-22T08:36:28Z</time>
      </trkpt>
      <trkpt lat="43.12825" lon="5.75862">
        <ele>-1.3</ele>
        <time>2016-05-22T08:36:46Z</time>
      </trkpt>
      <trkpt lat="43.12837" lon="5.75858">
        <ele>-1.3</ele>
        <time>2016-05-22T08:36:54Z</time>
      </trkpt>
      <trkpt lat="43.12856" lon="5.75827">
        <ele>-0.34</ele>
        <time>2016-05-22T08:37:13Z</time>
      </trkpt>
      <trkpt lat="43.12867" lon="5.75813">
        <ele>-0.34</ele>
        <time>2016-05-22T08:37:21Z</time>
      </trkpt>
      <trkpt lat="43.12873" lon="5.75775">
        <ele>-1.3</ele>
        <time>2016-05-22T08:37:37Z</time>
      </trkpt>
      <trkpt lat="43.12894" lon="5.75741">
        <ele>-0.82</ele>
        <time>2016-05-22T08:37:55Z</time>
      </trkpt>
      <trkpt lat="43.12922" lon="5.75741">
        <ele>-0.82</ele>
        <time>2016-05-22T08:38:11Z</time>
      </trkpt>
      <trkpt lat="43.12943" lon="5.75757">
        <ele>-0.82</ele>
        <time>2016-05-22T08:38:25Z</time>
      </trkpt>
      <trkpt lat="43.12967" lon="5.75785">
        <ele>-0.34</ele>
        <time>2016-05-22T08:38:42Z</time>
      </trkpt>
      <trkpt lat="43.12985" lon="5.75816">
        <ele>1.1</ele>
        <time>2016-05-22T08:38:57Z</time>
      </trkpt>
      <trkpt lat="43.13001" lon="5.75843">
        <ele>1.58</ele>
        <time>2016-05-22T08:39:12Z</time>
      </trkpt>
      <trkpt lat="43.13016" lon="5.7587">
        <ele>1.58</ele>
        <time>2016-05-22T08:39:28Z</time>
      </trkpt>
      <trkpt lat="43.13041" lon="5.75904">
        <ele>2.06</ele>
        <time>2016-05-22T08:39:49Z</time>
      </trkpt>
      <trkpt lat="43.13057" lon="5.75931">
        <ele>0.62</ele>
        <time>2016-05-22T08:40:06Z</time>
      </trkpt>
      <trkpt lat="43.13085" lon="5.7596">
        <ele>0.62</ele>
        <time>2016-05-22T08:40:24Z</time>
      </trkpt>
      <trkpt lat="43.13115" lon="5.75991">
        <ele>1.1</ele>
        <time>2016-05-22T08:40:41Z</time>
      </trkpt>
      <trkpt lat="43.13136" lon="5.76019">
        <ele>1.1</ele>
        <time>2016-05-22T08:40:55Z</time>
      </trkpt>
      <trkpt lat="43.13162" lon="5.76049">
        <ele>1.1</ele>
        <time>2016-05-22T08:41:11Z</time>
      </trkpt>
      <trkpt lat="43.13182" lon="5.76076">
        <ele>0.62</ele>
        <time>2016-05-22T08:41:23Z</time>
      </trkpt>
      <trkpt lat="43.13201" lon="5.76108">
        <ele>0.62</ele>
        <time>2016-05-22T08:41:37Z</time>
      </trkpt>
      <trkpt lat="43.13226" lon="5.76143">
        <ele>0.14</ele>
        <time>2016-05-22T08:41:53Z</time>
      </trkpt>
      <trkpt lat="43.13255" lon="5.76185">
        <ele>0.14</ele>
        <time>2016-05-22T08:42:10Z</time>
      </trkpt>
      <trkpt lat="43.13292" lon="5.76235">
        <ele>0.14</ele>
        <time>2016-05-22T08:42:31Z</time>
      </trkpt>
      <trkpt lat="43.13323" lon="5.76277">
        <ele>1.1</ele>
        <time>2016-05-22T08:42:48Z</time>
      </trkpt>
      <trkpt lat="43.13342" lon="5.76323">
        <ele>1.1</ele>
        <time>2016-05-22T08:43:06Z</time>
      </trkpt>
      <trkpt lat="43.13342" lon="5.76326">
        <ele>1.1</ele>
        <time>2016-05-22T08:43:07Z</time>
      </trkpt>
      <trkpt lat="43.13337" lon="5.76335">
        <ele>-0.34</ele>
        <time>2016-05-22T08:43:13Z</time>
      </trkpt>
      <trkpt lat="43.13311" lon="5.76347">
        <ele>-0.82</ele>
        <time>2016-05-22T08:43:29Z</time>
      </trkpt>
      <trkpt lat="43.13279" lon="5.7636">
        <ele>-1.79</ele>
        <time>2016-05-22T08:43:45Z</time>
      </trkpt>
      <trkpt lat="43.13235" lon="5.76377">
        <ele>-1.79</ele>
        <time>2016-05-22T08:44:03Z</time>
      </trkpt>
      <trkpt lat="43.13199" lon="5.76397">
        <ele>-0.34</ele>
        <time>2016-05-22T08:44:17Z</time>
      </trkpt>
      <trkpt lat="43.1316" lon="5.76415">
        <ele>0.62</ele>
        <time>2016-05-22T08:44:33Z</time>
      </trkpt>
      <trkpt lat="43.13123" lon="5.76432">
        <ele>0.14</ele>
        <time>2016-05-22T08:44:49Z</time>
      </trkpt>
      <trkpt lat="43.13082" lon="5.76457">
        <ele>0.14</ele>
        <time>2016-05-22T08:45:06Z</time>
      </trkpt>
      <trkpt lat="43.1305" lon="5.76484">
        <ele>-0.34</ele>
        <time>2016-05-22T08:45:20Z</time>
      </trkpt>
      <trkpt lat="43.13022" lon="5.76507">
        <ele>-0.34</ele>
        <time>2016-05-22T08:45:34Z</time>
      </trkpt>
      <trkpt lat="43.12993" lon="5.76525">
        <ele>0.62</ele>
        <time>2016-05-22T08:45:47Z</time>
      </trkpt>
      <trkpt lat="43.12957" lon="5.76552">
        <ele>0.62</ele>
        <time>2016-05-22T08:46:05Z</time>
      </trkpt>
      <trkpt lat="43.12915" lon="5.76572">
        <ele>0.14</ele>
        <time>2016-05-22T08:46:24Z</time>
      </trkpt>
      <trkpt lat="43.12875" lon="5.76592">
        <ele>-0.34</ele>
        <time>2016-05-22T08:46:40Z</time>
      </trkpt>
      <trkpt lat="43.12838" lon="5.7661">
        <ele>-0.34</ele>
        <time>2016-05-22T08:46:55Z</time>
      </trkpt>
      <trkpt lat="43.12797" lon="5.7663">
        <ele>-0.34</ele>
        <time>2016-05-22T08:47:10Z</time>
      </trkpt>
      <trkpt lat="43.12764" lon="5.76653">
        <ele>-1.3</ele>
        <time>2016-05-22T08:47:23Z</time>
      </trkpt>
      <trkpt lat="43.12762" lon="5.76655">
        <ele>-1.3</ele>
        <time>2016-05-22T08:47:24Z</time>
      </trkpt>
      <trkpt lat="43.12774" lon="5.76674">
        <ele>-0.82</ele>
        <time>2016-05-22T08:47:34Z</time>
      </trkpt>
      <trkpt lat="43.12782" lon="5.76676">
        <ele>-0.82</ele>
        <time>2016-05-22T08:47:38Z</time>
      </trkpt>
      <trkpt lat="43.12805" lon="5.767">
        <ele>-0.82</ele>
        <time>2016-05-22T08:47:53Z</time>
      </trkpt>
      <trkpt lat="43.12821" lon="5.76722">
        <ele>-1.3</ele>
        <time>2016-05-22T08:48:05Z</time>
      </trkpt>
      <trkpt lat="43.12835" lon="5.76757">
        <ele>-1.3</ele>
        <time>2016-05-22T08:48:19Z</time>
      </trkpt>
      <trkpt lat="43.12855" lon="5.76791">
        <ele>-0.82</ele>
        <time>2016-05-22T08:48:33Z</time>
      </trkpt>
      <trkpt lat="43.12884" lon="5.76828">
        <ele>0.62</ele>
        <time>2016-05-22T08:48:50Z</time>
      </trkpt>
      <trkpt lat="43.12912" lon="5.76883">
        <ele>0.14</ele>
        <time>2016-05-22T08:49:07Z</time>
      </trkpt>
      <trkpt lat="43.12931" lon="5.76933">
        <ele>1.1</ele>
        <time>2016-05-22T08:49:23Z</time>
      </trkpt>
      <trkpt lat="43.12954" lon="5.76975">
        <ele>1.58</ele>
        <time>2016-05-22T08:49:41Z</time>
      </trkpt>
      <trkpt lat="43.12979" lon="5.77002">
        <ele>2.06</ele>
        <time>2016-05-22T08:49:58Z</time>
      </trkpt>
      <trkpt lat="43.1301" lon="5.7703">
        <ele>2.06</ele>
        <time>2016-05-22T08:50:14Z</time>
      </trkpt>
      <trkpt lat="43.13043" lon="5.77058">
        <ele>1.58</ele>
        <time>2016-05-22T08:50:27Z</time>
      </trkpt>
      <trkpt lat="43.13082" lon="5.77094">
        <ele>0.62</ele>
        <time>2016-05-22T08:50:41Z</time>
      </trkpt>
      <trkpt lat="43.13122" lon="5.77131">
        <ele>0.14</ele>
        <time>2016-05-22T08:50:56Z</time>
      </trkpt>
      <trkpt lat="43.13176" lon="5.77174">
        <ele>-0.34</ele>
        <time>2016-05-22T08:51:15Z</time>
      </trkpt>
      <trkpt lat="43.13215" lon="5.77211">
        <ele>-0.82</ele>
        <time>2016-05-22T08:51:28Z</time>
      </trkpt>
      <trkpt lat="43.1322" lon="5.77222">
        <ele>-0.34</ele>
        <time>2016-05-22T08:51:31Z</time>
      </trkpt>
      <trkpt lat="43.13198" lon="5.77241">
        <ele>0.14</ele>
        <time>2016-05-22T08:51:43Z</time>
      </trkpt>
      <trkpt lat="43.13162" lon="5.77249">
        <ele>0.14</ele>
        <time>2016-05-22T08:51:57Z</time>
      </trkpt>
      <trkpt lat="43.13119" lon="5.77269">
        <ele>-0.82</ele>
        <time>2016-05-22T08:52:14Z</time>
      </trkpt>
      <trkpt lat="43.1308" lon="5.77284">
        <ele>0.14</ele>
        <time>2016-05-22T08:52:28Z</time>
      </trkpt>
      <trkpt lat="43.13037" lon="5.77294">
        <ele>1.1</ele>
        <time>2016-05-22T08:52:42Z</time>
      </trkpt>
      <trkpt lat="43.12988" lon="5.77304">
        <ele>1.1</ele>
        <time>2016-05-22T08:52:57Z</time>
      </trkpt>
      <trkpt lat="43.12942" lon="5.77299">
        <ele>0.62</ele>
        <time>2016-05-22T08:53:11Z</time>
      </trkpt>
      <trkpt lat="43.12895" lon="5.77289">
        <ele>1.1</ele>
        <time>2016-05-22T08:53:26Z</time>
      </trkpt>
      <trkpt lat="43.12847" lon="5.77267">
        <ele>-0.34</ele>
        <time>2016-05-22T08:53:41Z</time>
      </trkpt>
      <trkpt lat="43.12796" lon="5.77228">
        <ele>-0.82</ele>
        <time>2016-05-22T08:54:00Z</time>
      </trkpt>
      <trkpt lat="43.12756" lon="5.77201">
        <ele>-0.82</ele>
        <time>2016-05-22T08:54:17Z</time>
      </trkpt>
      <trkpt lat="43.1272" lon="5.77179">
        <ele>0.14</ele>
        <time>2016-05-22T08:54:35Z</time>
      </trkpt>
      <trkpt lat="43.12693" lon="5.77167">
        <ele>2.06</ele>
        <time>2016-05-22T08:54:52Z</time>
      </trkpt>
      <trkpt lat="43.1267" lon="5.77159">
        <ele>2.06</ele>
        <time>2016-05-22T08:55:06Z</time>
      </trkpt>
      <trkpt lat="43.1264" lon="5.77144">
        <ele>2.06</ele>
        <time>2016-05-22T08:55:23Z</time>
      </trkpt>
      <trkpt lat="43.12609" lon="5.77122">
        <ele>2.54</ele>
        <time>2016-05-22T08:55:36Z</time>
      </trkpt>
      <trkpt lat="43.12563" lon="5.77093">
        <ele>3.02</ele>
        <time>2016-05-22T08:55:52Z</time>
      </trkpt>
      <trkpt lat="43.12524" lon="5.77069">
        <ele>2.06</ele>
        <time>2016-05-22T08:56:06Z</time>
      </trkpt>
      <trkpt lat="43.12485" lon="5.77042">
        <ele>1.58</ele>
        <time>2016-05-22T08:56:20Z</time>
      </trkpt>
      <trkpt lat="43.12445" lon="5.77007">
        <ele>1.58</ele>
        <time>2016-05-22T08:56:35Z</time>
      </trkpt>
      <trkpt lat="43.12404" lon="5.76973">
        <ele>1.58</ele>
        <time>2016-05-22T08:56:52Z</time>
      </trkpt>
      <trkpt lat="43.12371" lon="5.76941">
        <ele>1.1</ele>
        <time>2016-05-22T08:57:07Z</time>
      </trkpt>
      <trkpt lat="43.12342" lon="5.76916">
        <ele>0.62</ele>
        <time>2016-05-22T08:57:20Z</time>
      </trkpt>
      <trkpt lat="43.12302" lon="5.76886">
        <ele>1.1</ele>
        <time>2016-05-22T08:57:35Z</time>
      </trkpt>
      <trkpt lat="43.12269" lon="5.76859">
        <ele>1.58</ele>
        <time>2016-05-22T08:57:48Z</time>
      </trkpt>
      <trkpt lat="43.12234" lon="5.76831">
        <ele>1.58</ele>
        <time>2016-05-22T08:58:03Z</time>
      </trkpt>
      <trkpt lat="43.12206" lon="5.76804">
        <ele>2.06</ele>
        <time>2016-05-22T08:58:18Z</time>
      </trkpt>
      <trkpt lat="43.1218" lon="5.76772">
        <ele>2.06</ele>
        <time>2016-05-22T08:58:36Z</time>
      </trkpt>
      <trkpt lat="43.12154" lon="5.76741">
        <ele>1.58</ele>
        <time>2016-05-22T08:58:53Z</time>
      </trkpt>
      <trkpt lat="43.12119" lon="5.76711">
        <ele>2.06</ele>
        <time>2016-05-22T08:59:08Z</time>
      </trkpt>
      <trkpt lat="43.12083" lon="5.76681">
        <ele>2.06</ele>
        <time>2016-05-22T08:59:22Z</time>
      </trkpt>
      <trkpt lat="43.12037" lon="5.7666">
        <ele>3.02</ele>
        <time>2016-05-22T08:59:37Z</time>
      </trkpt>
      <trkpt lat="43.11997" lon="5.7663">
        <ele>3.02</ele>
        <time>2016-05-22T08:59:52Z</time>
      </trkpt>
      <trkpt lat="43.1196" lon="5.76602">
        <ele>3.02</ele>
        <time>2016-05-22T09:00:08Z</time>
      </trkpt>
      <trkpt lat="43.11924" lon="5.7657">
        <ele>3.98</ele>
        <time>2016-05-22T09:00:25Z</time>
      </trkpt>
      <trkpt lat="43.11889" lon="5.76543">
        <ele>2.06</ele>
        <time>2016-05-22T09:00:39Z</time>
      </trkpt>
      <trkpt lat="43.11852" lon="5.76514">
        <ele>3.5</ele>
        <time>2016-05-22T09:00:54Z</time>
      </trkpt>
      <trkpt lat="43.11813" lon="5.76475">
        <ele>1.58</ele>
        <time>2016-05-22T09:01:11Z</time>
      </trkpt>
      <trkpt lat="43.11773" lon="5.76446">
        <ele>0.14</ele>
        <time>2016-05-22T09:01:27Z</time>
      </trkpt>
      <trkpt lat="43.11723" lon="5.76412">
        <ele>0.62</ele>
        <time>2016-05-22T09:01:49Z</time>
      </trkpt>
      <trkpt lat="43.11691" lon="5.7638">
        <ele>1.1</ele>
        <time>2016-05-22T09:02:08Z</time>
      </trkpt>
      <trkpt lat="43.11658" lon="5.76359">
        <ele>0.62</ele>
        <time>2016-05-22T09:02:24Z</time>
      </trkpt>
      <trkpt lat="43.11614" lon="5.76332">
        <ele>1.1</ele>
        <time>2016-05-22T09:02:42Z</time>
      </trkpt>
      <trkpt lat="43.11582" lon="5.76314">
        <ele>1.58</ele>
        <time>2016-05-22T09:02:55Z</time>
      </trkpt>
      <trkpt lat="43.11545" lon="5.76297">
        <ele>1.58</ele>
        <time>2016-05-22T09:03:08Z</time>
      </trkpt>
      <trkpt lat="43.11497" lon="5.76276">
        <ele>1.58</ele>
        <time>2016-05-22T09:03:23Z</time>
      </trkpt>
      <trkpt lat="43.11453" lon="5.76267">
        <ele>1.1</ele>
        <time>2016-05-22T09:03:38Z</time>
      </trkpt>
      <trkpt lat="43.11411" lon="5.76265">
        <ele>-0.34</ele>
        <time>2016-05-22T09:03:54Z</time>
      </trkpt>
      <trkpt lat="43.11371" lon="5.76261">
        <ele>-0.34</ele>
        <time>2016-05-22T09:04:10Z</time>
      </trkpt>
      <trkpt lat="43.11331" lon="5.76261">
        <ele>0.14</ele>
        <time>2016-05-22T09:04:24Z</time>
      </trkpt>
      <trkpt lat="43.11293" lon="5.76265">
        <ele>0.14</ele>
        <time>2016-05-22T09:04:38Z</time>
      </trkpt>
      <trkpt lat="43.11248" lon="5.76272">
        <ele>1.1</ele>
        <time>2016-05-22T09:04:55Z</time>
      </trkpt>
      <trkpt lat="43.11199" lon="5.76279">
        <ele>1.1</ele>
        <time>2016-05-22T09:05:13Z</time>
      </trkpt>
      <trkpt lat="43.11161" lon="5.76287">
        <ele>1.58</ele>
        <time>2016-05-22T09:05:27Z</time>
      </trkpt>
      <trkpt lat="43.11123" lon="5.76289">
        <ele>2.06</ele>
        <time>2016-05-22T09:05:40Z</time>
      </trkpt>
      <trkpt lat="43.1108" lon="5.76298">
        <ele>2.06</ele>
        <time>2016-05-22T09:05:55Z</time>
      </trkpt>
      <trkpt lat="43.11046" lon="5.76308">
        <ele>2.06</ele>
        <time>2016-05-22T09:06:08Z</time>
      </trkpt>
      <trkpt lat="43.11005" lon="5.76321">
        <ele>1.1</ele>
        <time>2016-05-22T09:06:25Z</time>
      </trkpt>
      <trkpt lat="43.10962" lon="5.76331">
        <ele>1.1</ele>
        <time>2016-05-22T09:06:41Z</time>
      </trkpt>
      <trkpt lat="43.10917" lon="5.76349">
        <ele>0.14</ele>
        <time>2016-05-22T09:06:59Z</time>
      </trkpt>
      <trkpt lat="43.10874" lon="5.76361">
        <ele>1.1</ele>
        <time>2016-05-22T09:07:15Z</time>
      </trkpt>
      <trkpt lat="43.10842" lon="5.76366">
        <ele>0.62</ele>
        <time>2016-05-22T09:07:27Z</time>
      </trkpt>
      <trkpt lat="43.10808" lon="5.76377">
        <ele>0.14</ele>
        <time>2016-05-22T09:07:40Z</time>
      </trkpt>
      <trkpt lat="43.10768" lon="5.76386">
        <ele>1.58</ele>
        <time>2016-05-22T09:07:55Z</time>
      </trkpt>
      <trkpt lat="43.10726" lon="5.76397">
        <ele>2.06</ele>
        <time>2016-05-22T09:08:10Z</time>
      </trkpt>
      <trkpt lat="43.10689" lon="5.76408">
        <ele>2.06</ele>
        <time>2016-05-22T09:08:24Z</time>
      </trkpt>
      <trkpt lat="43.10647" lon="5.76423">
        <ele>2.06</ele>
        <time>2016-05-22T09:08:40Z</time>
      </trkpt>
      <trkpt lat="43.10604" lon="5.76441">
        <ele>2.06</ele>
        <time>2016-05-22T09:08:57Z</time>
      </trkpt>
      <trkpt lat="43.10568" lon="5.76457">
        <ele>2.06</ele>
        <time>2016-05-22T09:09:12Z</time>
      </trkpt>
      <trkpt lat="43.10528" lon="5.76473">
        <ele>2.54</ele>
        <time>2016-05-22T09:09:28Z</time>
      </trkpt>
      <trkpt lat="43.10488" lon="5.76495">
        <ele>1.1</ele>
        <time>2016-05-22T09:09:45Z</time>
      </trkpt>
      <trkpt lat="43.10446" lon="5.76511">
        <ele>0.62</ele>
        <time>2016-05-22T09:10:02Z</time>
      </trkpt>
      <trkpt lat="43.10413" lon="5.76524">
        <ele>0.14</ele>
        <time>2016-05-22T09:10:15Z</time>
      </trkpt>
      <trkpt lat="43.10385" lon="5.7654">
        <ele>0.62</ele>
        <time>2016-05-22T09:10:27Z</time>
      </trkpt>
      <trkpt lat="43.10349" lon="5.76555">
        <ele>-0.34</ele>
        <time>2016-05-22T09:10:43Z</time>
      </trkpt>
      <trkpt lat="43.10318" lon="5.76564">
        <ele>0.14</ele>
        <time>2016-05-22T09:10:55Z</time>
      </trkpt>
      <trkpt lat="43.10292" lon="5.7657">
        <ele>-0.34</ele>
        <time>2016-05-22T09:11:05Z</time>
      </trkpt>
      <trkpt lat="43.10256" lon="5.76585">
        <ele>-0.82</ele>
        <time>2016-05-22T09:11:19Z</time>
      </trkpt>
      <trkpt lat="43.10217" lon="5.76605">
        <ele>0.14</ele>
        <time>2016-05-22T09:11:35Z</time>
      </trkpt>
      <trkpt lat="43.10182" lon="5.7662">
        <ele>0.62</ele>
        <time>2016-05-22T09:11:50Z</time>
      </trkpt>
      <trkpt lat="43.10146" lon="5.76635">
        <ele>1.1</ele>
        <time>2016-05-22T09:12:06Z</time>
      </trkpt>
      <trkpt lat="43.10108" lon="5.76652">
        <ele>1.58</ele>
        <time>2016-05-22T09:12:23Z</time>
      </trkpt>
      <trkpt lat="43.10079" lon="5.76662">
        <ele>1.58</ele>
        <time>2016-05-22T09:12:36Z</time>
      </trkpt>
      <trkpt lat="43.10043" lon="5.76679">
        <ele>1.58</ele>
        <time>2016-05-22T09:12:52Z</time>
      </trkpt>
      <trkpt lat="43.1001" lon="5.76691">
        <ele>1.58</ele>
        <time>2016-05-22T09:13:07Z</time>
      </trkpt>
      <trkpt lat="43.09974" lon="5.76706">
        <ele>1.58</ele>
        <time>2016-05-22T09:13:22Z</time>
      </trkpt>
      <trkpt lat="43.09936" lon="5.7672">
        <ele>0.14</ele>
        <time>2016-05-22T09:13:37Z</time>
      </trkpt>
      <trkpt lat="43.09895" lon="5.76743">
        <ele>0.62</ele>
        <time>2016-05-22T09:13:54Z</time>
      </trkpt>
      <trkpt lat="43.09851" lon="5.7676">
        <ele>0.14</ele>
        <time>2016-05-22T09:14:12Z</time>
      </trkpt>
      <trkpt lat="43.09816" lon="5.76774">
        <ele>0.62</ele>
        <time>2016-05-22T09:14:26Z</time>
      </trkpt>
      <trkpt lat="43.09771" lon="5.76798">
        <ele>1.58</ele>
        <time>2016-05-22T09:14:45Z</time>
      </trkpt>
      <trkpt lat="43.09738" lon="5.76815">
        <ele>1.58</ele>
        <time>2016-05-22T09:14:59Z</time>
      </trkpt>
      <trkpt lat="43.0971" lon="5.76829">
        <ele>0.14</ele>
        <time>2016-05-22T09:15:11Z</time>
      </trkpt>
      <trkpt lat="43.09663" lon="5.76855">
        <ele>0.14</ele>
        <time>2016-05-22T09:15:30Z</time>
      </trkpt>
      <trkpt lat="43.09616" lon="5.76876">
        <ele>-0.34</ele>
        <time>2016-05-22T09:15:50Z</time>
      </trkpt>
      <trkpt lat="43.09572" lon="5.76888">
        <ele>-0.34</ele>
        <time>2016-05-22T09:16:06Z</time>
      </trkpt>
      <trkpt lat="43.09524" lon="5.76906">
        <ele>0.62</ele>
        <time>2016-05-22T09:16:24Z</time>
      </trkpt>
      <trkpt lat="43.09487" lon="5.76927">
        <ele>0.14</ele>
        <time>2016-05-22T09:16:39Z</time>
      </trkpt>
      <trkpt lat="43.0945" lon="5.76953">
        <ele>1.58</ele>
        <time>2016-05-22T09:16:55Z</time>
      </trkpt>
      <trkpt lat="43.09404" lon="5.76987">
        <ele>1.58</ele>
        <time>2016-05-22T09:17:15Z</time>
      </trkpt>
      <trkpt lat="43.09372" lon="5.77015">
        <ele>1.58</ele>
        <time>2016-05-22T09:17:30Z</time>
      </trkpt>
      <trkpt lat="43.0934" lon="5.77042">
        <ele>0.62</ele>
        <time>2016-05-22T09:17:46Z</time>
      </trkpt>
      <trkpt lat="43.09308" lon="5.77065">
        <ele>1.58</ele>
        <time>2016-05-22T09:18:02Z</time>
      </trkpt>
      <trkpt lat="43.09273" lon="5.77091">
        <ele>1.58</ele>
        <time>2016-05-22T09:18:19Z</time>
      </trkpt>
      <trkpt lat="43.09235" lon="5.77117">
        <ele>1.1</ele>
        <time>2016-05-22T09:18:36Z</time>
      </trkpt>
      <trkpt lat="43.09195" lon="5.77147">
        <ele>0.14</ele>
        <time>2016-05-22T09:18:53Z</time>
      </trkpt>
      <trkpt lat="43.09155" lon="5.77179">
        <ele>0.62</ele>
        <time>2016-05-22T09:19:11Z</time>
      </trkpt>
      <trkpt lat="43.09117" lon="5.77207">
        <ele>1.1</ele>
        <time>2016-05-22T09:19:27Z</time>
      </trkpt>
      <trkpt lat="43.09081" lon="5.77241">
        <ele>1.1</ele>
        <time>2016-05-22T09:19:44Z</time>
      </trkpt>
      <trkpt lat="43.09047" lon="5.77263">
        <ele>0.62</ele>
        <time>2016-05-22T09:19:59Z</time>
      </trkpt>
      <trkpt lat="43.09015" lon="5.77275">
        <ele>1.58</ele>
        <time>2016-05-22T09:20:11Z</time>
      </trkpt>
      <trkpt lat="43.08954" lon="5.77305">
        <ele>1.58</ele>
        <time>2016-05-22T09:20:33Z</time>
      </trkpt>
      <trkpt lat="43.08903" lon="5.77328">
        <ele>1.58</ele>
        <time>2016-05-22T09:20:51Z</time>
      </trkpt>
      <trkpt lat="43.08855" lon="5.77359">
        <ele>2.06</ele>
        <time>2016-05-22T09:21:10Z</time>
      </trkpt>
      <trkpt lat="43.0881" lon="5.77388">
        <ele>2.06</ele>
        <time>2016-05-22T09:21:28Z</time>
      </trkpt>
      <trkpt lat="43.08764" lon="5.77404">
        <ele>2.06</ele>
        <time>2016-05-22T09:21:44Z</time>
      </trkpt>
      <trkpt lat="43.08726" lon="5.77419">
        <ele>1.58</ele>
        <time>2016-05-22T09:21:57Z</time>
      </trkpt>
      <trkpt lat="43.08679" lon="5.77434">
        <ele>2.54</ele>
        <time>2016-05-22T09:22:12Z</time>
      </trkpt>
      <trkpt lat="43.08653" lon="5.77449">
        <ele>1.58</ele>
        <time>2016-05-22T09:22:22Z</time>
      </trkpt>
      <trkpt lat="43.08665" lon="5.77481">
        <ele>1.58</ele>
        <time>2016-05-22T09:22:35Z</time>
      </trkpt>
      <trkpt lat="43.08689" lon="5.77532">
        <ele>0.14</ele>
        <time>2016-05-22T09:22:55Z</time>
      </trkpt>
      <trkpt lat="43.08716" lon="5.77602">
        <ele>1.58</ele>
        <time>2016-05-22T09:23:16Z</time>
      </trkpt>
      <trkpt lat="43.08733" lon="5.77651">
        <ele>1.1</ele>
        <time>2016-05-22T09:23:31Z</time>
      </trkpt>
      <trkpt lat="43.08748" lon="5.77698">
        <ele>0.62</ele>
        <time>2016-05-22T09:23:47Z</time>
      </trkpt>
      <trkpt lat="43.08768" lon="5.77747">
        <ele>0.14</ele>
        <time>2016-05-22T09:24:05Z</time>
      </trkpt>
      <trkpt lat="43.08787" lon="5.77786">
        <ele>1.1</ele>
        <time>2016-05-22T09:24:20Z</time>
      </trkpt>
      <trkpt lat="43.0881" lon="5.77839">
        <ele>1.58</ele>
        <time>2016-05-22T09:24:40Z</time>
      </trkpt>
      <trkpt lat="43.08835" lon="5.77894">
        <ele>1.58</ele>
        <time>2016-05-22T09:25:03Z</time>
      </trkpt>
      <trkpt lat="43.08859" lon="5.77938">
        <ele>1.58</ele>
        <time>2016-05-22T09:25:22Z</time>
      </trkpt>
      <trkpt lat="43.08884" lon="5.77989">
        <ele>2.54</ele>
        <time>2016-05-22T09:25:41Z</time>
      </trkpt>
      <trkpt lat="43.08907" lon="5.7803">
        <ele>3.5</ele>
        <time>2016-05-22T09:26:01Z</time>
      </trkpt>
      <trkpt lat="43.08934" lon="5.78069">
        <ele>2.54</ele>
        <time>2016-05-22T09:26:20Z</time>
      </trkpt>
      <trkpt lat="43.08957" lon="5.78104">
        <ele>3.02</ele>
        <time>2016-05-22T09:26:40Z</time>
      </trkpt>
      <trkpt lat="43.08986" lon="5.78141">
        <ele>3.02</ele>
        <time>2016-05-22T09:27:00Z</time>
      </trkpt>
      <trkpt lat="43.09015" lon="5.78188">
        <ele>3.02</ele>
        <time>2016-05-22T09:27:20Z</time>
      </trkpt>
      <trkpt lat="43.0903" lon="5.78214">
        <ele>3.02</ele>
        <time>2016-05-22T09:27:31Z</time>
      </trkpt>
      <trkpt lat="43.09022" lon="5.78222">
        <ele>2.54</ele>
        <time>2016-05-22T09:27:38Z</time>
      </trkpt>
      <trkpt lat="43.08995" lon="5.78238">
        <ele>2.06</ele>
        <time>2016-05-22T09:27:52Z</time>
      </trkpt>
      <trkpt lat="43.08942" lon="5.78259">
        <ele>2.06</ele>
        <time>2016-05-22T09:28:10Z</time>
      </trkpt>
      <trkpt lat="43.08873" lon="5.78293">
        <ele>0.62</ele>
        <time>2016-05-22T09:28:32Z</time>
      </trkpt>
      <trkpt lat="43.08805" lon="5.7833">
        <ele>-0.82</ele>
        <time>2016-05-22T09:28:54Z</time>
      </trkpt>
      <trkpt lat="43.08726" lon="5.78365">
        <ele>-0.34</ele>
        <time>2016-05-22T09:29:18Z</time>
      </trkpt>
      <trkpt lat="43.08671" lon="5.78387">
        <ele>0.14</ele>
        <time>2016-05-22T09:29:36Z</time>
      </trkpt>
      <trkpt lat="43.08629" lon="5.78404">
        <ele>1.1</ele>
        <time>2016-05-22T09:29:52Z</time>
      </trkpt>
      <trkpt lat="43.08588" lon="5.78424">
        <ele>1.58</ele>
        <time>2016-05-22T09:30:09Z</time>
      </trkpt>
      <trkpt lat="43.08537" lon="5.78453">
        <ele>2.06</ele>
        <time>2016-05-22T09:30:30Z</time>
      </trkpt>
      <trkpt lat="43.08484" lon="5.78482">
        <ele>0.14</ele>
        <time>2016-05-22T09:30:52Z</time>
      </trkpt>
      <trkpt lat="43.08443" lon="5.7851">
        <ele>1.1</ele>
        <time>2016-05-22T09:31:12Z</time>
      </trkpt>
      <trkpt lat="43.08398" lon="5.78528">
        <ele>2.54</ele>
        <time>2016-05-22T09:31:31Z</time>
      </trkpt>
      <trkpt lat="43.08342" lon="5.78556">
        <ele>2.06</ele>
        <time>2016-05-22T09:31:52Z</time>
      </trkpt>
      <trkpt lat="43.08301" lon="5.78578">
        <ele>2.06</ele>
        <time>2016-05-22T09:32:09Z</time>
      </trkpt>
      <trkpt lat="43.08264" lon="5.78601">
        <ele>1.58</ele>
        <time>2016-05-22T09:32:25Z</time>
      </trkpt>
      <trkpt lat="43.08212" lon="5.78622">
        <ele>0.62</ele>
        <time>2016-05-22T09:32:46Z</time>
      </trkpt>
      <trkpt lat="43.0817" lon="5.78641">
        <ele>1.1</ele>
        <time>2016-05-22T09:33:01Z</time>
      </trkpt>
      <trkpt lat="43.0814" lon="5.78655">
        <ele>0.62</ele>
        <time>2016-05-22T09:33:11Z</time>
      </trkpt>
      <trkpt lat="43.08137" lon="5.78667">
        <ele>0.62</ele>
        <time>2016-05-22T09:33:15Z</time>
      </trkpt>
      <trkpt lat="43.08156" lon="5.78696">
        <ele>2.06</ele>
        <time>2016-05-22T09:33:28Z</time>
      </trkpt>
      <trkpt lat="43.08191" lon="5.78727">
        <ele>3.02</ele>
        <time>2016-05-22T09:33:42Z</time>
      </trkpt>
      <trkpt lat="43.08244" lon="5.78767">
        <ele>2.54</ele>
        <time>2016-05-22T09:34:00Z</time>
      </trkpt>
      <trkpt lat="43.08312" lon="5.7881">
        <ele>1.58</ele>
        <time>2016-05-22T09:34:21Z</time>
      </trkpt>
      <trkpt lat="43.08372" lon="5.78842">
        <ele>1.58</ele>
        <time>2016-05-22T09:34:39Z</time>
      </trkpt>
      <trkpt lat="43.08431" lon="5.78878">
        <ele>1.1</ele>
        <time>2016-05-22T09:34:57Z</time>
      </trkpt>
      <trkpt lat="43.08483" lon="5.78901">
        <ele>1.58</ele>
        <time>2016-05-22T09:35:12Z</time>
      </trkpt>
      <trkpt lat="43.0854" lon="5.78925">
        <ele>-0.34</ele>
        <time>2016-05-22T09:35:29Z</time>
      </trkpt>
      <trkpt lat="43.08593" lon="5.78949">
        <ele>-0.34</ele>
        <time>2016-05-22T09:35:46Z</time>
      </trkpt>
      <trkpt lat="43.08647" lon="5.78976">
        <ele>1.1</ele>
        <time>2016-05-22T09:36:05Z</time>
      </trkpt>
      <trkpt lat="43.08697" lon="5.79">
        <ele>1.1</ele>
        <time>2016-05-22T09:36:22Z</time>
      </trkpt>
      <trkpt lat="43.08753" lon="5.79028">
        <ele>0.14</ele>
        <time>2016-05-22T09:36:41Z</time>
      </trkpt>
      <trkpt lat="43.08823" lon="5.79062">
        <ele>1.1</ele>
        <time>2016-05-22T09:37:03Z</time>
      </trkpt>
      <trkpt lat="43.08886" lon="5.7909">
        <ele>1.58</ele>
        <time>2016-05-22T09:37:21Z</time>
      </trkpt>
      <trkpt lat="43.0894" lon="5.79117">
        <ele>1.1</ele>
        <time>2016-05-22T09:37:37Z</time>
      </trkpt>
      <trkpt lat="43.08988" lon="5.79145">
        <ele>0.62</ele>
        <time>2016-05-22T09:37:51Z</time>
      </trkpt>
      <trkpt lat="43.09059" lon="5.79178">
        <ele>1.1</ele>
        <time>2016-05-22T09:38:12Z</time>
      </trkpt>
      <trkpt lat="43.09112" lon="5.79201">
        <ele>0.62</ele>
        <time>2016-05-22T09:38:27Z</time>
      </trkpt>
      <trkpt lat="43.09187" lon="5.79239">
        <ele>0.14</ele>
        <time>2016-05-22T09:38:48Z</time>
      </trkpt>
      <trkpt lat="43.09263" lon="5.79278">
        <ele>0.62</ele>
        <time>2016-05-22T09:39:09Z</time>
      </trkpt>
      <trkpt lat="43.09345" lon="5.79315">
        <ele>0.62</ele>
        <time>2016-05-22T09:39:32Z</time>
      </trkpt>
      <trkpt lat="43.09424" lon="5.79352">
        <ele>1.1</ele>
        <time>2016-05-22T09:39:55Z</time>
      </trkpt>
      <trkpt lat="43.09483" lon="5.79381">
        <ele>2.06</ele>
        <time>2016-05-22T09:40:13Z</time>
      </trkpt>
      <trkpt lat="43.09541" lon="5.7941">
        <ele>1.1</ele>
        <time>2016-05-22T09:40:31Z</time>
      </trkpt>
      <trkpt lat="43.09601" lon="5.79437">
        <ele>1.1</ele>
        <time>2016-05-22T09:40:51Z</time>
      </trkpt>
      <trkpt lat="43.09652" lon="5.79458">
        <ele>1.58</ele>
        <time>2016-05-22T09:41:08Z</time>
      </trkpt>
      <trkpt lat="43.09704" lon="5.79483">
        <ele>1.58</ele>
        <time>2016-05-22T09:41:26Z</time>
      </trkpt>
      <trkpt lat="43.09757" lon="5.79511">
        <ele>1.58</ele>
        <time>2016-05-22T09:41:45Z</time>
      </trkpt>
      <trkpt lat="43.09824" lon="5.79546">
        <ele>1.58</ele>
        <time>2016-05-22T09:42:06Z</time>
      </trkpt>
      <trkpt lat="43.09876" lon="5.79571">
        <ele>1.1</ele>
        <time>2016-05-22T09:42:22Z</time>
      </trkpt>
      <trkpt lat="43.09931" lon="5.79598">
        <ele>2.06</ele>
        <time>2016-05-22T09:42:40Z</time>
      </trkpt>
      <trkpt lat="43.09979" lon="5.79625">
        <ele>3.02</ele>
        <time>2016-05-22T09:42:55Z</time>
      </trkpt>
      <trkpt lat="43.10032" lon="5.79658">
        <ele>3.02</ele>
        <time>2016-05-22T09:43:12Z</time>
      </trkpt>
      <trkpt lat="43.10089" lon="5.79694">
        <ele>0.62</ele>
        <time>2016-05-22T09:43:30Z</time>
      </trkpt>
      <trkpt lat="43.10141" lon="5.79725">
        <ele>0.62</ele>
        <time>2016-05-22T09:43:46Z</time>
      </trkpt>
      <trkpt lat="43.10193" lon="5.7975">
        <ele>2.54</ele>
        <time>2016-05-22T09:44:02Z</time>
      </trkpt>
      <trkpt lat="43.10245" lon="5.79773">
        <ele>2.54</ele>
        <time>2016-05-22T09:44:19Z</time>
      </trkpt>
      <trkpt lat="43.10293" lon="5.79795">
        <ele>1.58</ele>
        <time>2016-05-22T09:44:35Z</time>
      </trkpt>
      <trkpt lat="43.10343" lon="5.79818">
        <ele>2.06</ele>
        <time>2016-05-22T09:44:52Z</time>
      </trkpt>
      <trkpt lat="43.10402" lon="5.79847">
        <ele>1.58</ele>
        <time>2016-05-22T09:45:11Z</time>
      </trkpt>
      <trkpt lat="43.10462" lon="5.79878">
        <ele>0.62</ele>
        <time>2016-05-22T09:45:29Z</time>
      </trkpt>
      <trkpt lat="43.10527" lon="5.79907">
        <ele>1.58</ele>
        <time>2016-05-22T09:45:48Z</time>
      </trkpt>
      <trkpt lat="43.10583" lon="5.79929">
        <ele>0.14</ele>
        <time>2016-05-22T09:46:05Z</time>
      </trkpt>
      <trkpt lat="43.10634" lon="5.79956">
        <ele>-0.82</ele>
        <time>2016-05-22T09:46:20Z</time>
      </trkpt>
      <trkpt lat="43.10677" lon="5.79973">
        <ele>-0.82</ele>
        <time>2016-05-22T09:46:33Z</time>
      </trkpt>
      <trkpt lat="43.10734" lon="5.79996">
        <ele>0.14</ele>
        <time>2016-05-22T09:46:51Z</time>
      </trkpt>
      <trkpt lat="43.10778" lon="5.80018">
        <ele>1.1</ele>
        <time>2016-05-22T09:47:05Z</time>
      </trkpt>
      <trkpt lat="43.10824" lon="5.80044">
        <ele>2.06</ele>
        <time>2016-05-22T09:47:20Z</time>
      </trkpt>
      <trkpt lat="43.10867" lon="5.80062">
        <ele>3.02</ele>
        <time>2016-05-22T09:47:34Z</time>
      </trkpt>
      <trkpt lat="43.1092" lon="5.80076">
        <ele>1.58</ele>
        <time>2016-05-22T09:47:50Z</time>
      </trkpt>
      <trkpt lat="43.10972" lon="5.80084">
        <ele>1.58</ele>
        <time>2016-05-22T09:48:05Z</time>
      </trkpt>
      <trkpt lat="43.11025" lon="5.80089">
        <ele>1.58</ele>
        <time>2016-05-22T09:48:20Z</time>
      </trkpt>
      <trkpt lat="43.11072" lon="5.8009">
        <ele>3.5</ele>
        <time>2016-05-22T09:48:34Z</time>
      </trkpt>
      <trkpt lat="43.11113" lon="5.80083">
        <ele>3.5</ele>
        <time>2016-05-22T09:48:46Z</time>
      </trkpt>
      <trkpt lat="43.11149" lon="5.80043">
        <ele>3.02</ele>
        <time>2016-05-22T09:49:00Z</time>
      </trkpt>
      <trkpt lat="43.11147" lon="5.79984">
        <ele>2.06</ele>
        <time>2016-05-22T09:49:16Z</time>
      </trkpt>
      <trkpt lat="43.11136" lon="5.79907">
        <ele>2.06</ele>
        <time>2016-05-22T09:49:39Z</time>
      </trkpt>
      <trkpt lat="43.11132" lon="5.79823">
        <ele>2.54</ele>
        <time>2016-05-22T09:50:05Z</time>
      </trkpt>
      <trkpt lat="43.11133" lon="5.79756">
        <ele>1.58</ele>
        <time>2016-05-22T09:50:27Z</time>
      </trkpt>
      <trkpt lat="43.11136" lon="5.79689">
        <ele>0.62</ele>
        <time>2016-05-22T09:50:51Z</time>
      </trkpt>
      <trkpt lat="43.11138" lon="5.79628">
        <ele>0.14</ele>
        <time>2016-05-22T09:51:14Z</time>
      </trkpt>
      <trkpt lat="43.11142" lon="5.79575">
        <ele>0.14</ele>
        <time>2016-05-22T09:51:36Z</time>
      </trkpt>
      <trkpt lat="43.11146" lon="5.79512">
        <ele>-1.3</ele>
        <time>2016-05-22T09:51:59Z</time>
      </trkpt>
      <trkpt lat="43.11149" lon="5.79468">
        <ele>-0.82</ele>
        <time>2016-05-22T09:52:14Z</time>
      </trkpt>
      <trkpt lat="43.11147" lon="5.79414">
        <ele>-1.3</ele>
        <time>2016-05-22T09:52:32Z</time>
      </trkpt>
      <trkpt lat="43.11147" lon="5.79351">
        <ele>-1.3</ele>
        <time>2016-05-22T09:52:51Z</time>
      </trkpt>
      <trkpt lat="43.11148" lon="5.79294">
        <ele>-1.79</ele>
        <time>2016-05-22T09:53:08Z</time>
      </trkpt>
      <trkpt lat="43.11149" lon="5.79237">
        <ele>-0.34</ele>
        <time>2016-05-22T09:53:25Z</time>
      </trkpt>
      <trkpt lat="43.1115" lon="5.79179">
        <ele>-0.34</ele>
        <time>2016-05-22T09:53:43Z</time>
      </trkpt>
      <trkpt lat="43.11152" lon="5.79134">
        <ele>1.1</ele>
        <time>2016-05-22T09:53:56Z</time>
      </trkpt>
      <trkpt lat="43.11156" lon="5.79075">
        <ele>1.1</ele>
        <time>2016-05-22T09:54:13Z</time>
      </trkpt>
      <trkpt lat="43.11161" lon="5.79002">
        <ele>0.62</ele>
        <time>2016-05-22T09:54:34Z</time>
      </trkpt>
      <trkpt lat="43.11167" lon="5.78948">
        <ele>0.14</ele>
        <time>2016-05-22T09:54:50Z</time>
      </trkpt>
      <trkpt lat="43.11172" lon="5.78896">
        <ele>0.62</ele>
        <time>2016-05-22T09:55:06Z</time>
      </trkpt>
      <trkpt lat="43.11179" lon="5.78832">
        <ele>0.62</ele>
        <time>2016-05-22T09:55:24Z</time>
      </trkpt>
      <trkpt lat="43.11187" lon="5.7877">
        <ele>0.62</ele>
        <time>2016-05-22T09:55:41Z</time>
      </trkpt>
      <trkpt lat="43.11194" lon="5.78709">
        <ele>1.58</ele>
        <time>2016-05-22T09:55:58Z</time>
      </trkpt>
      <trkpt lat="43.11202" lon="5.78653">
        <ele>1.1</ele>
        <time>2016-05-22T09:56:14Z</time>
      </trkpt>
      <trkpt lat="43.11209" lon="5.78597">
        <ele>1.1</ele>
        <time>2016-05-22T09:56:31Z</time>
      </trkpt>
      <trkpt lat="43.11216" lon="5.78544">
        <ele>1.1</ele>
        <time>2016-05-22T09:56:48Z</time>
      </trkpt>
      <trkpt lat="43.11223" lon="5.78495">
        <ele>1.1</ele>
        <time>2016-05-22T09:57:04Z</time>
      </trkpt>
      <trkpt lat="43.1123" lon="5.78442">
        <ele>1.58</ele>
        <time>2016-05-22T09:57:21Z</time>
      </trkpt>
      <trkpt lat="43.11236" lon="5.78381">
        <ele>2.06</ele>
        <time>2016-05-22T09:57:41Z</time>
      </trkpt>
      <trkpt lat="43.11241" lon="5.78342">
        <ele>2.06</ele>
        <time>2016-05-22T09:57:55Z</time>
      </trkpt>
      <trkpt lat="43.11244" lon="5.78305">
        <ele>2.06</ele>
        <time>2016-05-22T09:58:09Z</time>
      </trkpt>
      <trkpt lat="43.11248" lon="5.78262">
        <ele>1.1</ele>
        <time>2016-05-22T09:58:26Z</time>
      </trkpt>
      <trkpt lat="43.11251" lon="5.78221">
        <ele>1.58</ele>
        <time>2016-05-22T09:58:41Z</time>
      </trkpt>
      <trkpt lat="43.11256" lon="5.78175">
        <ele>1.58</ele>
        <time>2016-05-22T09:58:56Z</time>
      </trkpt>
      <trkpt lat="43.11262" lon="5.78129">
        <ele>1.58</ele>
        <time>2016-05-22T09:59:11Z</time>
      </trkpt>
      <trkpt lat="43.11271" lon="5.78083">
        <ele>1.58</ele>
        <time>2016-05-22T09:59:27Z</time>
      </trkpt>
      <trkpt lat="43.11276" lon="5.78036">
        <ele>2.06</ele>
        <time>2016-05-22T09:59:43Z</time>
      </trkpt>
      <trkpt lat="43.11277" lon="5.77987">
        <ele>1.58</ele>
        <time>2016-05-22T09:59:59Z</time>
      </trkpt>
      <trkpt lat="43.11281" lon="5.77937">
        <ele>1.58</ele>
        <time>2016-05-22T10:00:14Z</time>
      </trkpt>
      <trkpt lat="43.11283" lon="5.77892">
        <ele>0.62</ele>
        <time>2016-05-22T10:00:27Z</time>
      </trkpt>
      <trkpt lat="43.11287" lon="5.77826">
        <ele>0.62</ele>
        <time>2016-05-22T10:00:45Z</time>
      </trkpt>
      <trkpt lat="43.11291" lon="5.77753">
        <ele>1.1</ele>
        <time>2016-05-22T10:01:04Z</time>
      </trkpt>
      <trkpt lat="43.11297" lon="5.77683">
        <ele>1.58</ele>
        <time>2016-05-22T10:01:23Z</time>
      </trkpt>
      <trkpt lat="43.11302" lon="5.7762">
        <ele>1.58</ele>
        <time>2016-05-22T10:01:41Z</time>
      </trkpt>
      <trkpt lat="43.11309" lon="5.77549">
        <ele>1.1</ele>
        <time>2016-05-22T10:02:01Z</time>
      </trkpt>
      <trkpt lat="43.11315" lon="5.77484">
        <ele>0.14</ele>
        <time>2016-05-22T10:02:19Z</time>
      </trkpt>
      <trkpt lat="43.11318" lon="5.77423">
        <ele>0.62</ele>
        <time>2016-05-22T10:02:36Z</time>
      </trkpt>
      <trkpt lat="43.11323" lon="5.77361">
        <ele>0.14</ele>
        <time>2016-05-22T10:02:54Z</time>
      </trkpt>
      <trkpt lat="43.11327" lon="5.77307">
        <ele>1.1</ele>
        <time>2016-05-22T10:03:10Z</time>
      </trkpt>
      <trkpt lat="43.11329" lon="5.77251">
        <ele>1.58</ele>
        <time>2016-05-22T10:03:26Z</time>
      </trkpt>
      <trkpt lat="43.11334" lon="5.77191">
        <ele>1.1</ele>
        <time>2016-05-22T10:03:42Z</time>
      </trkpt>
      <trkpt lat="43.11338" lon="5.77134">
        <ele>0.62</ele>
        <time>2016-05-22T10:03:58Z</time>
      </trkpt>
      <trkpt lat="43.11342" lon="5.77088">
        <ele>0.14</ele>
        <time>2016-05-22T10:04:11Z</time>
      </trkpt>
      <trkpt lat="43.11346" lon="5.77033">
        <ele>1.58</ele>
        <time>2016-05-22T10:04:26Z</time>
      </trkpt>
      <trkpt lat="43.11348" lon="5.76982">
        <ele>1.1</ele>
        <time>2016-05-22T10:04:40Z</time>
      </trkpt>
      <trkpt lat="43.11352" lon="5.76931">
        <ele>1.58</ele>
        <time>2016-05-22T10:04:54Z</time>
      </trkpt>
      <trkpt lat="43.11354" lon="5.76877">
        <ele>1.1</ele>
        <time>2016-05-22T10:05:08Z</time>
      </trkpt>
      <trkpt lat="43.11358" lon="5.76837">
        <ele>0.14</ele>
        <time>2016-05-22T10:05:19Z</time>
      </trkpt>
      <trkpt lat="43.11357" lon="5.76787">
        <ele>-0.82</ele>
        <time>2016-05-22T10:05:32Z</time>
      </trkpt>
      <trkpt lat="43.11361" lon="5.76735">
        <ele>-3.23</ele>
        <time>2016-05-22T10:05:46Z</time>
      </trkpt>
      <trkpt lat="43.11361" lon="5.76693">
        <ele>-1.79</ele>
        <time>2016-05-22T10:05:57Z</time>
      </trkpt>
      <trkpt lat="43.11363" lon="5.76641">
        <ele>-0.82</ele>
        <time>2016-05-22T10:06:10Z</time>
      </trkpt>
      <trkpt lat="43.11364" lon="5.76592">
        <ele>0.14</ele>
        <time>2016-05-22T10:06:23Z</time>
      </trkpt>
      <trkpt lat="43.11365" lon="5.76544">
        <ele>0.14</ele>
        <time>2016-05-22T10:06:35Z</time>
      </trkpt>
      <trkpt lat="43.1137" lon="5.76489">
        <ele>0.14</ele>
        <time>2016-05-22T10:06:49Z</time>
      </trkpt>
      <trkpt lat="43.11375" lon="5.76439">
        <ele>0.62</ele>
        <time>2016-05-22T10:07:02Z</time>
      </trkpt>
      <trkpt lat="43.11382" lon="5.76393">
        <ele>0.14</ele>
        <time>2016-05-22T10:07:15Z</time>
      </trkpt>
      <trkpt lat="43.11389" lon="5.76347">
        <ele>2.06</ele>
        <time>2016-05-22T10:07:28Z</time>
      </trkpt>
      <trkpt lat="43.11403" lon="5.76304">
        <ele>1.1</ele>
        <time>2016-05-22T10:07:42Z</time>
      </trkpt>
      <trkpt lat="43.1143" lon="5.76272">
        <ele>1.58</ele>
        <time>2016-05-22T10:07:58Z</time>
      </trkpt>
      <trkpt lat="43.11479" lon="5.76267">
        <ele>2.06</ele>
        <time>2016-05-22T10:08:15Z</time>
      </trkpt>
      <trkpt lat="43.11536" lon="5.76259">
        <ele>1.1</ele>
        <time>2016-05-22T10:08:34Z</time>
      </trkpt>
      <trkpt lat="43.11582" lon="5.76254">
        <ele>0.14</ele>
        <time>2016-05-22T10:08:49Z</time>
      </trkpt>
      <trkpt lat="43.1163" lon="5.76251">
        <ele>-0.34</ele>
        <time>2016-05-22T10:09:04Z</time>
      </trkpt>
      <trkpt lat="43.11679" lon="5.76245">
        <ele>-0.82</ele>
        <time>2016-05-22T10:09:20Z</time>
      </trkpt>
      <trkpt lat="43.11731" lon="5.76239">
        <ele>-0.34</ele>
        <time>2016-05-22T10:09:36Z</time>
      </trkpt>
      <trkpt lat="43.11788" lon="5.76233">
        <ele>-0.82</ele>
        <time>2016-05-22T10:09:55Z</time>
      </trkpt>
      <trkpt lat="43.11835" lon="5.7623">
        <ele>-0.82</ele>
        <time>2016-05-22T10:10:11Z</time>
      </trkpt>
      <trkpt lat="43.11895" lon="5.76222">
        <ele>-0.82</ele>
        <time>2016-05-22T10:10:31Z</time>
      </trkpt>
      <trkpt lat="43.11936" lon="5.7622">
        <ele>0.14</ele>
        <time>2016-05-22T10:10:45Z</time>
      </trkpt>
      <trkpt lat="43.11995" lon="5.76215">
        <ele>-0.82</ele>
        <time>2016-05-22T10:11:05Z</time>
      </trkpt>
      <trkpt lat="43.12053" lon="5.7621">
        <ele>-1.3</ele>
        <time>2016-05-22T10:11:26Z</time>
      </trkpt>
      <trkpt lat="43.12085" lon="5.76211">
        <ele>0.14</ele>
        <time>2016-05-22T10:11:37Z</time>
      </trkpt>
      <trkpt lat="43.12125" lon="5.7621">
        <ele>1.58</ele>
        <time>2016-05-22T10:11:52Z</time>
      </trkpt>
      <trkpt lat="43.12165" lon="5.76208">
        <ele>0.62</ele>
        <time>2016-05-22T10:12:06Z</time>
      </trkpt>
      <trkpt lat="43.12214" lon="5.76207">
        <ele>0.62</ele>
        <time>2016-05-22T10:12:23Z</time>
      </trkpt>
      <trkpt lat="43.12267" lon="5.76202">
        <ele>-0.34</ele>
        <time>2016-05-22T10:12:42Z</time>
      </trkpt>
      <trkpt lat="43.12306" lon="5.762">
        <ele>-0.34</ele>
        <time>2016-05-22T10:12:56Z</time>
      </trkpt>
      <trkpt lat="43.12348" lon="5.76196">
        <ele>0.14</ele>
        <time>2016-05-22T10:13:12Z</time>
      </trkpt>
      <trkpt lat="43.12404" lon="5.76192">
        <ele>-0.82</ele>
        <time>2016-05-22T10:13:34Z</time>
      </trkpt>
      <trkpt lat="43.12445" lon="5.76188">
        <ele>-0.34</ele>
        <time>2016-05-22T10:13:50Z</time>
      </trkpt>
      <trkpt lat="43.12488" lon="5.76185">
        <ele>0.14</ele>
        <time>2016-05-22T10:14:06Z</time>
      </trkpt>
      <trkpt lat="43.12532" lon="5.76183">
        <ele>-0.34</ele>
        <time>2016-05-22T10:14:22Z</time>
      </trkpt>
      <trkpt lat="43.12574" lon="5.76181">
        <ele>-0.34</ele>
        <time>2016-05-22T10:14:36Z</time>
      </trkpt>
      <trkpt lat="43.12619" lon="5.76174">
        <ele>0.14</ele>
        <time>2016-05-22T10:14:52Z</time>
      </trkpt>
      <trkpt lat="43.12669" lon="5.76171">
        <ele>1.1</ele>
        <time>2016-05-22T10:15:11Z</time>
      </trkpt>
      <trkpt lat="43.12721" lon="5.76169">
        <ele>0.62</ele>
        <time>2016-05-22T10:15:29Z</time>
      </trkpt>
      <trkpt lat="43.12778" lon="5.76166">
        <ele>1.1</ele>
        <time>2016-05-22T10:15:48Z</time>
      </trkpt>
      <trkpt lat="43.12832" lon="5.76167">
        <ele>0.14</ele>
        <time>2016-05-22T10:16:06Z</time>
      </trkpt>
      <trkpt lat="43.12876" lon="5.76164">
        <ele>-0.82</ele>
        <time>2016-05-22T10:16:22Z</time>
      </trkpt>
      <trkpt lat="43.12932" lon="5.76171">
        <ele>-1.79</ele>
        <time>2016-05-22T10:16:42Z</time>
      </trkpt>
      <trkpt lat="43.12978" lon="5.76166">
        <ele>-1.79</ele>
        <time>2016-05-22T10:17:01Z</time>
      </trkpt>
      <trkpt lat="43.13023" lon="5.76155">
        <ele>-1.3</ele>
        <time>2016-05-22T10:17:22Z</time>
      </trkpt>
      <trkpt lat="43.13067" lon="5.76145">
        <ele>-0.82</ele>
        <time>2016-05-22T10:17:43Z</time>
      </trkpt>
      <trkpt lat="43.13116" lon="5.76138">
        <ele>-0.34</ele>
        <time>2016-05-22T10:18:06Z</time>
      </trkpt>
      <trkpt lat="43.13164" lon="5.76125">
        <ele>-0.34</ele>
        <time>2016-05-22T10:18:31Z</time>
      </trkpt>
      <trkpt lat="43.13211" lon="5.76114">
        <ele>-0.82</ele>
        <time>2016-05-22T10:18:58Z</time>
      </trkpt>
      <trkpt lat="43.13266" lon="5.76101">
        <ele>-0.34</ele>
        <time>2016-05-22T10:19:29Z</time>
      </trkpt>
      <trkpt lat="43.13313" lon="5.7609">
        <ele>0.62</ele>
        <time>2016-05-22T10:19:57Z</time>
      </trkpt>
      <trkpt lat="43.13346" lon="5.76083">
        <ele>0.14</ele>
        <time>2016-05-22T10:20:18Z</time>
      </trkpt>
      <trkpt lat="43.13394" lon="5.76067">
        <ele>-1.3</ele>
        <time>2016-05-22T10:20:47Z</time>
      </trkpt>
      <trkpt lat="43.13406" lon="5.76036">
        <ele>0.14</ele>
        <time>2016-05-22T10:21:01Z</time>
      </trkpt>
      <trkpt lat="43.13383" lon="5.76014">
        <ele>-0.82</ele>
        <time>2016-05-22T10:21:17Z</time>
      </trkpt>
      <trkpt lat="43.13348" lon="5.76006">
        <ele>-1.79</ele>
        <time>2016-05-22T10:21:35Z</time>
      </trkpt>
      <trkpt lat="43.13295" lon="5.75996">
        <ele>1.58</ele>
        <time>2016-05-22T10:21:56Z</time>
      </trkpt>
      <trkpt lat="43.13239" lon="5.75988">
        <ele>2.06</ele>
        <time>2016-05-22T10:22:19Z</time>
      </trkpt>
      <trkpt lat="43.13185" lon="5.75978">
        <ele>2.06</ele>
        <time>2016-05-22T10:22:42Z</time>
      </trkpt>
      <trkpt lat="43.13141" lon="5.75979">
        <ele>1.58</ele>
        <time>2016-05-22T10:23:00Z</time>
      </trkpt>
      <trkpt lat="43.1309" lon="5.75975">
        <ele>1.1</ele>
        <time>2016-05-22T10:23:22Z</time>
      </trkpt>
      <trkpt lat="43.13038" lon="5.75971">
        <ele>1.58</ele>
        <time>2016-05-22T10:23:45Z</time>
      </trkpt>
      <trkpt lat="43.13014" lon="5.75967">
        <ele>0.14</ele>
        <time>2016-05-22T10:23:56Z</time>
      </trkpt>
      <trkpt lat="43.12987" lon="5.75964">
        <ele>-0.82</ele>
        <time>2016-05-22T10:24:10Z</time>
      </trkpt>
      <trkpt lat="43.12947" lon="5.75958">
        <ele>-1.3</ele>
        <time>2016-05-22T10:24:31Z</time>
      </trkpt>
      <trkpt lat="43.129" lon="5.75948">
        <ele>-0.82</ele>
        <time>2016-05-22T10:24:52Z</time>
      </trkpt>
      <trkpt lat="43.12857" lon="5.75937">
        <ele>-0.82</ele>
        <time>2016-05-22T10:25:11Z</time>
      </trkpt>
      <trkpt lat="43.12825" lon="5.7593">
        <ele>-1.3</ele>
        <time>2016-05-22T10:25:23Z</time>
      </trkpt>
      <trkpt lat="43.12782" lon="5.75922">
        <ele>-0.82</ele>
        <time>2016-05-22T10:25:40Z</time>
      </trkpt>
      <trkpt lat="43.12747" lon="5.75919">
        <ele>-1.3</ele>
        <time>2016-05-22T10:25:55Z</time>
      </trkpt>
      <trkpt lat="43.12705" lon="5.75915">
        <ele>-2.27</ele>
        <time>2016-05-22T10:26:11Z</time>
      </trkpt>
      <trkpt lat="43.12647" lon="5.75914">
        <ele>-1.79</ele>
        <time>2016-05-22T10:26:33Z</time>
      </trkpt>
      <trkpt lat="43.12598" lon="5.75916">
        <ele>-1.79</ele>
        <time>2016-05-22T10:26:52Z</time>
      </trkpt>
      <trkpt lat="43.12562" lon="5.7592">
        <ele>0.14</ele>
        <time>2016-05-22T10:27:07Z</time>
      </trkpt>
      <trkpt lat="43.1252" lon="5.75922">
        <ele>-0.34</ele>
        <time>2016-05-22T10:27:24Z</time>
      </trkpt>
      <trkpt lat="43.12475" lon="5.75924">
        <ele>-0.34</ele>
        <time>2016-05-22T10:27:43Z</time>
      </trkpt>
      <trkpt lat="43.12434" lon="5.75927">
        <ele>-0.34</ele>
        <time>2016-05-22T10:28:00Z</time>
      </trkpt>
      <trkpt lat="43.12387" lon="5.7593">
        <ele>-0.34</ele>
        <time>2016-05-22T10:28:18Z</time>
      </trkpt>
      <trkpt lat="43.12348" lon="5.75934">
        <ele>-0.82</ele>
        <time>2016-05-22T10:28:33Z</time>
      </trkpt>
      <trkpt lat="43.12307" lon="5.7594">
        <ele>-1.3</ele>
        <time>2016-05-22T10:28:49Z</time>
      </trkpt>
      <trkpt lat="43.12258" lon="5.7595">
        <ele>-1.79</ele>
        <time>2016-05-22T10:29:07Z</time>
      </trkpt>
      <trkpt lat="43.1221" lon="5.75961">
        <ele>-1.3</ele>
        <time>2016-05-22T10:29:26Z</time>
      </trkpt>
      <trkpt lat="43.12178" lon="5.75967">
        <ele>0.14</ele>
        <time>2016-05-22T10:29:39Z</time>
      </trkpt>
      <trkpt lat="43.12125" lon="5.75979">
        <ele>1.1</ele>
        <time>2016-05-22T10:29:59Z</time>
      </trkpt>
      <trkpt lat="43.12086" lon="5.75986">
        <ele>1.1</ele>
        <time>2016-05-22T10:30:15Z</time>
      </trkpt>
      <trkpt lat="43.12041" lon="5.75994">
        <ele>1.1</ele>
        <time>2016-05-22T10:30:34Z</time>
      </trkpt>
      <trkpt lat="43.11998" lon="5.76">
        <ele>0.14</ele>
        <time>2016-05-22T10:30:51Z</time>
      </trkpt>
      <trkpt lat="43.11953" lon="5.76012">
        <ele>-0.34</ele>
        <time>2016-05-22T10:31:08Z</time>
      </trkpt>
      <trkpt lat="43.11914" lon="5.76025">
        <ele>-0.82</ele>
        <time>2016-05-22T10:31:23Z</time>
      </trkpt>
      <trkpt lat="43.11872" lon="5.76034">
        <ele>-0.34</ele>
        <time>2016-05-22T10:31:40Z</time>
      </trkpt>
      <trkpt lat="43.11831" lon="5.76044">
        <ele>0.14</ele>
        <time>2016-05-22T10:31:57Z</time>
      </trkpt>
      <trkpt lat="43.11776" lon="5.76061">
        <ele>-0.34</ele>
        <time>2016-05-22T10:32:21Z</time>
      </trkpt>
      <trkpt lat="43.11727" lon="5.7608">
        <ele>-0.34</ele>
        <time>2016-05-22T10:32:44Z</time>
      </trkpt>
      <trkpt lat="43.11677" lon="5.76098">
        <ele>-0.34</ele>
        <time>2016-05-22T10:33:09Z</time>
      </trkpt>
      <trkpt lat="43.1163" lon="5.76113">
        <ele>-0.34</ele>
        <time>2016-05-22T10:33:32Z</time>
      </trkpt>
      <trkpt lat="43.11566" lon="5.76131">
        <ele>-1.3</ele>
        <time>2016-05-22T10:34:02Z</time>
      </trkpt>
      <trkpt lat="43.11513" lon="5.76149">
        <ele>-0.82</ele>
        <time>2016-05-22T10:34:25Z</time>
      </trkpt>
      <trkpt lat="43.1145" lon="5.76166">
        <ele>-0.82</ele>
        <time>2016-05-22T10:34:53Z</time>
      </trkpt>
      <trkpt lat="43.11396" lon="5.76181">
        <ele>-1.3</ele>
        <time>2016-05-22T10:35:18Z</time>
      </trkpt>
      <trkpt lat="43.11333" lon="5.76197">
        <ele>-1.3</ele>
        <time>2016-05-22T10:35:45Z</time>
      </trkpt>
      <trkpt lat="43.11276" lon="5.76211">
        <ele>-2.75</ele>
        <time>2016-05-22T10:36:09Z</time>
      </trkpt>
      <trkpt lat="43.11213" lon="5.76227">
        <ele>-1.3</ele>
        <time>2016-05-22T10:36:34Z</time>
      </trkpt>
      <trkpt lat="43.11138" lon="5.76253">
        <ele>-1.79</ele>
        <time>2016-05-22T10:37:04Z</time>
      </trkpt>
      <trkpt lat="43.11078" lon="5.76281">
        <ele>-1.3</ele>
        <time>2016-05-22T10:37:31Z</time>
      </trkpt>
      <trkpt lat="43.11029" lon="5.76307">
        <ele>-3.23</ele>
        <time>2016-05-22T10:37:56Z</time>
      </trkpt>
      <trkpt lat="43.10992" lon="5.76325">
        <ele>-2.27</ele>
        <time>2016-05-22T10:38:17Z</time>
      </trkpt>
      <trkpt lat="43.1095" lon="5.76342">
        <ele>-0.34</ele>
        <time>2016-05-22T10:38:39Z</time>
      </trkpt>
      <trkpt lat="43.10923" lon="5.76354">
        <ele>-0.34</ele>
        <time>2016-05-22T10:38:53Z</time>
      </trkpt>
      <trkpt lat="43.10893" lon="5.76366">
        <ele>-0.34</ele>
        <time>2016-05-22T10:39:09Z</time>
      </trkpt>
      <trkpt lat="43.10857" lon="5.76383">
        <ele>-0.34</ele>
        <time>2016-05-22T10:39:29Z</time>
      </trkpt>
      <trkpt lat="43.10822" lon="5.76397">
        <ele>-0.34</ele>
        <time>2016-05-22T10:39:48Z</time>
      </trkpt>
      <trkpt lat="43.10784" lon="5.76414">
        <ele>-0.34</ele>
        <time>2016-05-22T10:40:08Z</time>
      </trkpt>
      <trkpt lat="43.10748" lon="5.76431">
        <ele>-0.34</ele>
        <time>2016-05-22T10:40:27Z</time>
      </trkpt>
      <trkpt lat="43.10717" lon="5.76445">
        <ele>0.14</ele>
        <time>2016-05-22T10:40:43Z</time>
      </trkpt>
      <trkpt lat="43.10681" lon="5.76461">
        <ele>0.14</ele>
        <time>2016-05-22T10:41:01Z</time>
      </trkpt>
      <trkpt lat="43.10637" lon="5.7648">
        <ele>1.1</ele>
        <time>2016-05-22T10:41:24Z</time>
      </trkpt>
      <trkpt lat="43.10584" lon="5.76503">
        <ele>1.1</ele>
        <time>2016-05-22T10:41:48Z</time>
      </trkpt>
      <trkpt lat="43.1052" lon="5.76532">
        <ele>-0.34</ele>
        <time>2016-05-22T10:42:17Z</time>
      </trkpt>
      <trkpt lat="43.10455" lon="5.76559">
        <ele>-1.3</ele>
        <time>2016-05-22T10:42:47Z</time>
      </trkpt>
      <trkpt lat="43.10407" lon="5.76576">
        <ele>-0.82</ele>
        <time>2016-05-22T10:43:06Z</time>
      </trkpt>
      <trkpt lat="43.10358" lon="5.76597">
        <ele>-0.34</ele>
        <time>2016-05-22T10:43:27Z</time>
      </trkpt>
      <trkpt lat="43.10297" lon="5.7662">
        <ele>-0.82</ele>
        <time>2016-05-22T10:43:50Z</time>
      </trkpt>
      <trkpt lat="43.10261" lon="5.76635">
        <ele>-1.79</ele>
        <time>2016-05-22T10:44:04Z</time>
      </trkpt>
      <trkpt lat="43.10224" lon="5.76648">
        <ele>-2.75</ele>
        <time>2016-05-22T10:44:18Z</time>
      </trkpt>
      <trkpt lat="43.1017" lon="5.76671">
        <ele>-2.75</ele>
        <time>2016-05-22T10:44:39Z</time>
      </trkpt>
      <trkpt lat="43.10126" lon="5.76692">
        <ele>-2.27</ele>
        <time>2016-05-22T10:44:57Z</time>
      </trkpt>
      <trkpt lat="43.10079" lon="5.76716">
        <ele>-1.3</ele>
        <time>2016-05-22T10:45:15Z</time>
      </trkpt>
      <trkpt lat="43.10035" lon="5.76741">
        <ele>0.62</ele>
        <time>2016-05-22T10:45:33Z</time>
      </trkpt>
      <trkpt lat="43.10003" lon="5.76765">
        <ele>0.62</ele>
        <time>2016-05-22T10:45:49Z</time>
      </trkpt>
      <trkpt lat="43.09971" lon="5.76788">
        <ele>1.1</ele>
        <time>2016-05-22T10:46:06Z</time>
      </trkpt>
      <trkpt lat="43.09935" lon="5.76811">
        <ele>0.62</ele>
        <time>2016-05-22T10:46:24Z</time>
      </trkpt>
      <trkpt lat="43.09898" lon="5.76834">
        <ele>0.62</ele>
        <time>2016-05-22T10:46:43Z</time>
      </trkpt>
      <trkpt lat="43.0986" lon="5.76858">
        <ele>-0.34</ele>
        <time>2016-05-22T10:47:01Z</time>
      </trkpt>
      <trkpt lat="43.09818" lon="5.76893">
        <ele>0.62</ele>
        <time>2016-05-22T10:47:22Z</time>
      </trkpt>
      <trkpt lat="43.0979" lon="5.76917">
        <ele>0.14</ele>
        <time>2016-05-22T10:47:37Z</time>
      </trkpt>
      <trkpt lat="43.09751" lon="5.76955">
        <ele>-2.75</ele>
        <time>2016-05-22T10:48:00Z</time>
      </trkpt>
      <trkpt lat="43.09712" lon="5.76987">
        <ele>-2.27</ele>
        <time>2016-05-22T10:48:22Z</time>
      </trkpt>
      <trkpt lat="43.09666" lon="5.77022">
        <ele>-4.19</ele>
        <time>2016-05-22T10:48:45Z</time>
      </trkpt>
      <trkpt lat="43.0962" lon="5.77059">
        <ele>-5.15</ele>
        <time>2016-05-22T10:49:09Z</time>
      </trkpt>
      <trkpt lat="43.09577" lon="5.77093">
        <ele>-3.71</ele>
        <time>2016-05-22T10:49:30Z</time>
      </trkpt>
      <trkpt lat="43.0954" lon="5.77123">
        <ele>-1.79</ele>
        <time>2016-05-22T10:49:50Z</time>
      </trkpt>
      <trkpt lat="43.09506" lon="5.77151">
        <ele>-3.23</ele>
        <time>2016-05-22T10:50:09Z</time>
      </trkpt>
      <trkpt lat="43.09469" lon="5.77189">
        <ele>-0.34</ele>
        <time>2016-05-22T10:50:32Z</time>
      </trkpt>
      <trkpt lat="43.09449" lon="5.77206">
        <ele>-1.3</ele>
        <time>2016-05-22T10:50:44Z</time>
      </trkpt>
      <trkpt lat="43.09415" lon="5.77235">
        <ele>-1.3</ele>
        <time>2016-05-22T10:51:04Z</time>
      </trkpt>
      <trkpt lat="43.09384" lon="5.77261">
        <ele>-1.3</ele>
        <time>2016-05-22T10:51:22Z</time>
      </trkpt>
      <trkpt lat="43.0934" lon="5.77305">
        <ele>-1.3</ele>
        <time>2016-05-22T10:51:50Z</time>
      </trkpt>
      <trkpt lat="43.09301" lon="5.7734">
        <ele>0.14</ele>
        <time>2016-05-22T10:52:11Z</time>
      </trkpt>
      <trkpt lat="43.09265" lon="5.77378">
        <ele>0.14</ele>
        <time>2016-05-22T10:52:31Z</time>
      </trkpt>
      <trkpt lat="43.09226" lon="5.77414">
        <ele>-0.34</ele>
        <time>2016-05-22T10:52:52Z</time>
      </trkpt>
      <trkpt lat="43.09182" lon="5.77446">
        <ele>0.14</ele>
        <time>2016-05-22T10:53:13Z</time>
      </trkpt>
      <trkpt lat="43.09141" lon="5.77481">
        <ele>-0.34</ele>
        <time>2016-05-22T10:53:30Z</time>
      </trkpt>
      <trkpt lat="43.09102" lon="5.77522">
        <ele>-0.34</ele>
        <time>2016-05-22T10:53:51Z</time>
      </trkpt>
      <trkpt lat="43.09071" lon="5.7755">
        <ele>-0.82</ele>
        <time>2016-05-22T10:54:09Z</time>
      </trkpt>
      <trkpt lat="43.09038" lon="5.77577">
        <ele>-1.3</ele>
        <time>2016-05-22T10:54:29Z</time>
      </trkpt>
      <trkpt lat="43.09007" lon="5.77599">
        <ele>-0.34</ele>
        <time>2016-05-22T10:54:48Z</time>
      </trkpt>
      <trkpt lat="43.08966" lon="5.77621">
        <ele>-0.82</ele>
        <time>2016-05-22T10:55:06Z</time>
      </trkpt>
      <trkpt lat="43.08915" lon="5.77654">
        <ele>-0.82</ele>
        <time>2016-05-22T10:55:29Z</time>
      </trkpt>
      <trkpt lat="43.08871" lon="5.77684">
        <ele>-2.27</ele>
        <time>2016-05-22T10:55:51Z</time>
      </trkpt>
      <trkpt lat="43.08831" lon="5.77703">
        <ele>-1.79</ele>
        <time>2016-05-22T10:56:13Z</time>
      </trkpt>
      <trkpt lat="43.08787" lon="5.77722">
        <ele>-1.3</ele>
        <time>2016-05-22T10:56:31Z</time>
      </trkpt>
      <trkpt lat="43.0878" lon="5.77749">
        <ele>-1.3</ele>
        <time>2016-05-22T10:56:43Z</time>
      </trkpt>
      <trkpt lat="43.08796" lon="5.77798">
        <ele>-0.34</ele>
        <time>2016-05-22T10:57:06Z</time>
      </trkpt>
      <trkpt lat="43.08812" lon="5.77848">
        <ele>-0.34</ele>
        <time>2016-05-22T10:57:26Z</time>
      </trkpt>
      <trkpt lat="43.08832" lon="5.77906">
        <ele>-0.34</ele>
        <time>2016-05-22T10:57:47Z</time>
      </trkpt>
      <trkpt lat="43.08851" lon="5.77964">
        <ele>0.14</ele>
        <time>2016-05-22T10:58:07Z</time>
      </trkpt>
      <trkpt lat="43.08869" lon="5.78023">
        <ele>0.14</ele>
        <time>2016-05-22T10:58:27Z</time>
      </trkpt>
      <trkpt lat="43.08887" lon="5.78079">
        <ele>1.1</ele>
        <time>2016-05-22T10:58:49Z</time>
      </trkpt>
      <trkpt lat="43.08916" lon="5.78138">
        <ele>1.1</ele>
        <time>2016-05-22T10:59:11Z</time>
      </trkpt>
      <trkpt lat="43.08952" lon="5.78209">
        <ele>0.14</ele>
        <time>2016-05-22T10:59:32Z</time>
      </trkpt>
      <trkpt lat="43.08951" lon="5.78247">
        <ele>0.62</ele>
        <time>2016-05-22T10:59:45Z</time>
      </trkpt>
      <trkpt lat="43.08913" lon="5.78255">
        <ele>-0.34</ele>
        <time>2016-05-22T11:00:03Z</time>
      </trkpt>
      <trkpt lat="43.08859" lon="5.78271">
        <ele>-0.82</ele>
        <time>2016-05-22T11:00:21Z</time>
      </trkpt>
      <trkpt lat="43.08816" lon="5.78288">
        <ele>0.14</ele>
        <time>2016-05-22T11:00:34Z</time>
      </trkpt>
      <trkpt lat="43.08781" lon="5.78302">
        <ele>-1.3</ele>
        <time>2016-05-22T11:00:45Z</time>
      </trkpt>
      <trkpt lat="43.08723" lon="5.78321">
        <ele>-0.82</ele>
        <time>2016-05-22T11:01:03Z</time>
      </trkpt>
      <trkpt lat="43.08665" lon="5.78342">
        <ele>-0.82</ele>
        <time>2016-05-22T11:01:23Z</time>
      </trkpt>
      <trkpt lat="43.08603" lon="5.78375">
        <ele>-0.82</ele>
        <time>2016-05-22T11:01:46Z</time>
      </trkpt>
      <trkpt lat="43.08535" lon="5.78415">
        <ele>-0.82</ele>
        <time>2016-05-22T11:02:13Z</time>
      </trkpt>
      <trkpt lat="43.08484" lon="5.78449">
        <ele>-1.3</ele>
        <time>2016-05-22T11:02:32Z</time>
      </trkpt>
      <trkpt lat="43.08415" lon="5.78496">
        <ele>-0.34</ele>
        <time>2016-05-22T11:02:57Z</time>
      </trkpt>
      <trkpt lat="43.08356" lon="5.78534">
        <ele>-1.3</ele>
        <time>2016-05-22T11:03:18Z</time>
      </trkpt>
      <trkpt lat="43.083" lon="5.78569">
        <ele>-0.82</ele>
        <time>2016-05-22T11:03:37Z</time>
      </trkpt>
      <trkpt lat="43.08246" lon="5.78606">
        <ele>-0.34</ele>
        <time>2016-05-22T11:03:56Z</time>
      </trkpt>
      <trkpt lat="43.08178" lon="5.78638">
        <ele>-0.34</ele>
        <time>2016-05-22T11:04:18Z</time>
      </trkpt>
      <trkpt lat="43.08127" lon="5.78636">
        <ele>-0.34</ele>
        <time>2016-05-22T11:04:34Z</time>
      </trkpt>
      <trkpt lat="43.08105" lon="5.78653">
        <ele>-0.34</ele>
        <time>2016-05-22T11:04:46Z</time>
      </trkpt>
      <trkpt lat="43.08134" lon="5.78679">
        <ele>-1.3</ele>
        <time>2016-05-22T11:05:04Z</time>
      </trkpt>
      <trkpt lat="43.08181" lon="5.78713">
        <ele>-2.27</ele>
        <time>2016-05-22T11:05:22Z</time>
      </trkpt>
      <trkpt lat="43.08244" lon="5.78759">
        <ele>-2.75</ele>
        <time>2016-05-22T11:05:43Z</time>
      </trkpt>
      <trkpt lat="43.08305" lon="5.788">
        <ele>-1.79</ele>
        <time>2016-05-22T11:06:02Z</time>
      </trkpt>
      <trkpt lat="43.08348" lon="5.78821">
        <ele>-2.75</ele>
        <time>2016-05-22T11:06:16Z</time>
      </trkpt>
      <trkpt lat="43.08406" lon="5.78842">
        <ele>-0.82</ele>
        <time>2016-05-22T11:06:33Z</time>
      </trkpt>
      <trkpt lat="43.08477" lon="5.78866">
        <ele>-1.3</ele>
        <time>2016-05-22T11:06:54Z</time>
      </trkpt>
      <trkpt lat="43.08553" lon="5.789">
        <ele>-0.82</ele>
        <time>2016-05-22T11:07:16Z</time>
      </trkpt>
      <trkpt lat="43.08621" lon="5.78934">
        <ele>-0.34</ele>
        <time>2016-05-22T11:07:35Z</time>
      </trkpt>
      <trkpt lat="43.08698" lon="5.78969">
        <ele>0.14</ele>
        <time>2016-05-22T11:07:57Z</time>
      </trkpt>
      <trkpt lat="43.08753" lon="5.78996">
        <ele>-1.3</ele>
        <time>2016-05-22T11:08:14Z</time>
      </trkpt>
      <trkpt lat="43.08819" lon="5.79018">
        <ele>-1.3</ele>
        <time>2016-05-22T11:08:34Z</time>
      </trkpt>
      <trkpt lat="43.08896" lon="5.7904">
        <ele>-0.82</ele>
        <time>2016-05-22T11:08:58Z</time>
      </trkpt>
      <trkpt lat="43.08958" lon="5.79059">
        <ele>-1.3</ele>
        <time>2016-05-22T11:09:17Z</time>
      </trkpt>
      <trkpt lat="43.09028" lon="5.79092">
        <ele>-1.79</ele>
        <time>2016-05-22T11:09:37Z</time>
      </trkpt>
      <trkpt lat="43.09088" lon="5.79123">
        <ele>-1.3</ele>
        <time>2016-05-22T11:09:53Z</time>
      </trkpt>
      <trkpt lat="43.09153" lon="5.79157">
        <ele>-2.27</ele>
        <time>2016-05-22T11:10:12Z</time>
      </trkpt>
      <trkpt lat="43.09208" lon="5.79185">
        <ele>-2.27</ele>
        <time>2016-05-22T11:10:28Z</time>
      </trkpt>
      <trkpt lat="43.09264" lon="5.79217">
        <ele>-1.79</ele>
        <time>2016-05-22T11:10:44Z</time>
      </trkpt>
      <trkpt lat="43.09315" lon="5.79245">
        <ele>-1.3</ele>
        <time>2016-05-22T11:10:59Z</time>
      </trkpt>
      <trkpt lat="43.09371" lon="5.79279">
        <ele>-2.75</ele>
        <time>2016-05-22T11:11:15Z</time>
      </trkpt>
      <trkpt lat="43.094" lon="5.79297">
        <ele>-2.75</ele>
        <time>2016-05-22T11:11:23Z</time>
      </trkpt>
      <trkpt lat="43.09465" lon="5.79336">
        <ele>-2.27</ele>
        <time>2016-05-22T11:11:42Z</time>
      </trkpt>
      <trkpt lat="43.09503" lon="5.79353">
        <ele>-1.79</ele>
        <time>2016-05-22T11:11:54Z</time>
      </trkpt>
      <trkpt lat="43.09565" lon="5.7938">
        <ele>-1.79</ele>
        <time>2016-05-22T11:12:13Z</time>
      </trkpt>
      <trkpt lat="43.09622" lon="5.79407">
        <ele>-2.75</ele>
        <time>2016-05-22T11:12:30Z</time>
      </trkpt>
      <trkpt lat="43.09677" lon="5.79434">
        <ele>-1.79</ele>
        <time>2016-05-22T11:12:46Z</time>
      </trkpt>
      <trkpt lat="43.0973" lon="5.7946">
        <ele>-1.3</ele>
        <time>2016-05-22T11:13:01Z</time>
      </trkpt>
      <trkpt lat="43.09791" lon="5.7949">
        <ele>-1.3</ele>
        <time>2016-05-22T11:13:18Z</time>
      </trkpt>
      <trkpt lat="43.09861" lon="5.79524">
        <ele>-2.27</ele>
        <time>2016-05-22T11:13:38Z</time>
      </trkpt>
      <trkpt lat="43.09934" lon="5.79558">
        <ele>-2.27</ele>
        <time>2016-05-22T11:13:59Z</time>
      </trkpt>
      <trkpt lat="43.10007" lon="5.79592">
        <ele>-2.27</ele>
        <time>2016-05-22T11:14:20Z</time>
      </trkpt>
      <trkpt lat="43.10064" lon="5.79619">
        <ele>-1.79</ele>
        <time>2016-05-22T11:14:36Z</time>
      </trkpt>
      <trkpt lat="43.10128" lon="5.79648">
        <ele>-2.27</ele>
        <time>2016-05-22T11:14:55Z</time>
      </trkpt>
      <trkpt lat="43.102" lon="5.79684">
        <ele>-2.27</ele>
        <time>2016-05-22T11:15:16Z</time>
      </trkpt>
      <trkpt lat="43.10269" lon="5.79716">
        <ele>-2.27</ele>
        <time>2016-05-22T11:15:36Z</time>
      </trkpt>
      <trkpt lat="43.10336" lon="5.79744">
        <ele>-2.27</ele>
        <time>2016-05-22T11:15:55Z</time>
      </trkpt>
      <trkpt lat="43.10396" lon="5.7977">
        <ele>-1.79</ele>
        <time>2016-05-22T11:16:14Z</time>
      </trkpt>
      <trkpt lat="43.10454" lon="5.79796">
        <ele>-1.3</ele>
        <time>2016-05-22T11:16:32Z</time>
      </trkpt>
      <trkpt lat="43.105" lon="5.79816">
        <ele>-1.79</ele>
        <time>2016-05-22T11:16:46Z</time>
      </trkpt>
      <trkpt lat="43.10565" lon="5.79845">
        <ele>-3.23</ele>
        <time>2016-05-22T11:17:06Z</time>
      </trkpt>
      <trkpt lat="43.10641" lon="5.7988">
        <ele>-3.23</ele>
        <time>2016-05-22T11:17:30Z</time>
      </trkpt>
      <trkpt lat="43.1071" lon="5.79911">
        <ele>-3.23</ele>
        <time>2016-05-22T11:17:51Z</time>
      </trkpt>
      <trkpt lat="43.1078" lon="5.79941">
        <ele>-2.75</ele>
        <time>2016-05-22T11:18:12Z</time>
      </trkpt>
      <trkpt lat="43.10842" lon="5.79964">
        <ele>-2.75</ele>
        <time>2016-05-22T11:18:31Z</time>
      </trkpt>
      <trkpt lat="43.10893" lon="5.79988">
        <ele>-2.75</ele>
        <time>2016-05-22T11:18:47Z</time>
      </trkpt>
      <trkpt lat="43.10958" lon="5.80024">
        <ele>-2.75</ele>
        <time>2016-05-22T11:19:07Z</time>
      </trkpt>
      <trkpt lat="43.11023" lon="5.80055">
        <ele>-2.75</ele>
        <time>2016-05-22T11:19:26Z</time>
      </trkpt>
      <trkpt lat="43.11077" lon="5.80076">
        <ele>-2.27</ele>
        <time>2016-05-22T11:19:42Z</time>
      </trkpt>
      <trkpt lat="43.11134" lon="5.80087">
        <ele>-2.75</ele>
        <time>2016-05-22T11:19:59Z</time>
      </trkpt>
      <trkpt lat="43.11153" lon="5.80064">
        <ele>-3.23</ele>
        <time>2016-05-22T11:20:08Z</time>
      </trkpt>
      <trkpt lat="43.11138" lon="5.79994">
        <ele>-2.27</ele>
        <time>2016-05-22T11:20:26Z</time>
      </trkpt>
      <trkpt lat="43.11134" lon="5.7992">
        <ele>-1.3</ele>
        <time>2016-05-22T11:20:45Z</time>
      </trkpt>
      <trkpt lat="43.11133" lon="5.79854">
        <ele>-0.82</ele>
        <time>2016-05-22T11:21:01Z</time>
      </trkpt>
      <trkpt lat="43.11131" lon="5.79746">
        <ele>-0.82</ele>
        <time>2016-05-22T11:21:27Z</time>
      </trkpt>
      <trkpt lat="43.11134" lon="5.79649">
        <ele>-0.82</ele>
        <time>2016-05-22T11:21:50Z</time>
      </trkpt>
      <trkpt lat="43.11134" lon="5.79558">
        <ele>-0.82</ele>
        <time>2016-05-22T11:22:12Z</time>
      </trkpt>
      <trkpt lat="43.11132" lon="5.79465">
        <ele>-0.34</ele>
        <time>2016-05-22T11:22:34Z</time>
      </trkpt>
      <trkpt lat="43.11131" lon="5.79354">
        <ele>-0.82</ele>
        <time>2016-05-22T11:23:00Z</time>
      </trkpt>
      <trkpt lat="43.11134" lon="5.79274">
        <ele>-0.34</ele>
        <time>2016-05-22T11:23:20Z</time>
      </trkpt>
      <trkpt lat="43.11137" lon="5.79165">
        <ele>-1.3</ele>
        <time>2016-05-22T11:23:47Z</time>
      </trkpt>
      <trkpt lat="43.11141" lon="5.79081">
        <ele>0.14</ele>
        <time>2016-05-22T11:24:09Z</time>
      </trkpt>
      <trkpt lat="43.11144" lon="5.79015">
        <ele>0.14</ele>
        <time>2016-05-22T11:24:26Z</time>
      </trkpt>
      <trkpt lat="43.11149" lon="5.78936">
        <ele>0.14</ele>
        <time>2016-05-22T11:24:47Z</time>
      </trkpt>
      <trkpt lat="43.11154" lon="5.78866">
        <ele>-0.34</ele>
        <time>2016-05-22T11:25:05Z</time>
      </trkpt>
      <trkpt lat="43.11161" lon="5.78782">
        <ele>-0.34</ele>
        <time>2016-05-22T11:25:26Z</time>
      </trkpt>
      <trkpt lat="43.11167" lon="5.78721">
        <ele>0.62</ele>
        <time>2016-05-22T11:25:42Z</time>
      </trkpt>
      <trkpt lat="43.11174" lon="5.78658">
        <ele>-0.34</ele>
        <time>2016-05-22T11:25:58Z</time>
      </trkpt>
      <trkpt lat="43.11182" lon="5.78577">
        <ele>-0.34</ele>
        <time>2016-05-22T11:26:17Z</time>
      </trkpt>
      <trkpt lat="43.11191" lon="5.78475">
        <ele>-0.34</ele>
        <time>2016-05-22T11:26:39Z</time>
      </trkpt>
      <trkpt lat="43.11196" lon="5.78399">
        <ele>-0.82</ele>
        <time>2016-05-22T11:26:56Z</time>
      </trkpt>
      <trkpt lat="43.11204" lon="5.7832">
        <ele>-0.82</ele>
        <time>2016-05-22T11:27:14Z</time>
      </trkpt>
      <trkpt lat="43.11209" lon="5.78249">
        <ele>-1.3</ele>
        <time>2016-05-22T11:27:31Z</time>
      </trkpt>
      <trkpt lat="43.11215" lon="5.78173">
        <ele>-2.27</ele>
        <time>2016-05-22T11:27:49Z</time>
      </trkpt>
      <trkpt lat="43.11222" lon="5.78082">
        <ele>-2.27</ele>
        <time>2016-05-22T11:28:11Z</time>
      </trkpt>
      <trkpt lat="43.1123" lon="5.77985">
        <ele>-1.3</ele>
        <time>2016-05-22T11:28:35Z</time>
      </trkpt>
      <trkpt lat="43.11238" lon="5.77923">
        <ele>1.1</ele>
        <time>2016-05-22T11:28:52Z</time>
      </trkpt>
      <trkpt lat="43.11244" lon="5.77855">
        <ele>0.62</ele>
        <time>2016-05-22T11:29:10Z</time>
      </trkpt>
      <trkpt lat="43.11252" lon="5.77776">
        <ele>-0.34</ele>
        <time>2016-05-22T11:29:30Z</time>
      </trkpt>
      <trkpt lat="43.11261" lon="5.777">
        <ele>0.14</ele>
        <time>2016-05-22T11:29:50Z</time>
      </trkpt>
      <trkpt lat="43.11268" lon="5.77626">
        <ele>0.14</ele>
        <time>2016-05-22T11:30:09Z</time>
      </trkpt>
      <trkpt lat="43.11274" lon="5.77544">
        <ele>0.14</ele>
        <time>2016-05-22T11:30:29Z</time>
      </trkpt>
      <trkpt lat="43.11279" lon="5.77473">
        <ele>0.14</ele>
        <time>2016-05-22T11:30:46Z</time>
      </trkpt>
      <trkpt lat="43.11282" lon="5.77403">
        <ele>-0.34</ele>
        <time>2016-05-22T11:31:02Z</time>
      </trkpt>
      <trkpt lat="43.11286" lon="5.77326">
        <ele>0.14</ele>
        <time>2016-05-22T11:31:19Z</time>
      </trkpt>
      <trkpt lat="43.11289" lon="5.77253">
        <ele>-0.34</ele>
        <time>2016-05-22T11:31:35Z</time>
      </trkpt>
      <trkpt lat="43.1129" lon="5.77194">
        <ele>-0.34</ele>
        <time>2016-05-22T11:31:48Z</time>
      </trkpt>
      <trkpt lat="43.11295" lon="5.77142">
        <ele>0.14</ele>
        <time>2016-05-22T11:32:00Z</time>
      </trkpt>
      <trkpt lat="43.11298" lon="5.77071">
        <ele>-0.82</ele>
        <time>2016-05-22T11:32:16Z</time>
      </trkpt>
      <trkpt lat="43.11303" lon="5.77008">
        <ele>-0.34</ele>
        <time>2016-05-22T11:32:31Z</time>
      </trkpt>
      <trkpt lat="43.1131" lon="5.7693">
        <ele>-0.34</ele>
        <time>2016-05-22T11:32:50Z</time>
      </trkpt>
      <trkpt lat="43.11317" lon="5.76859">
        <ele>-0.34</ele>
        <time>2016-05-22T11:33:07Z</time>
      </trkpt>
      <trkpt lat="43.11326" lon="5.76785">
        <ele>-0.34</ele>
        <time>2016-05-22T11:33:25Z</time>
      </trkpt>
      <trkpt lat="43.11332" lon="5.76725">
        <ele>-0.34</ele>
        <time>2016-05-22T11:33:40Z</time>
      </trkpt>
      <trkpt lat="43.11343" lon="5.76652">
        <ele>-0.82</ele>
        <time>2016-05-22T11:33:58Z</time>
      </trkpt>
      <trkpt lat="43.11353" lon="5.76592">
        <ele>-0.34</ele>
        <time>2016-05-22T11:34:12Z</time>
      </trkpt>
      <trkpt lat="43.11361" lon="5.76515">
        <ele>-0.34</ele>
        <time>2016-05-22T11:34:29Z</time>
      </trkpt>
      <trkpt lat="43.11369" lon="5.7645">
        <ele>-0.34</ele>
        <time>2016-05-22T11:34:43Z</time>
      </trkpt>
      <trkpt lat="43.11377" lon="5.76388">
        <ele>0.14</ele>
        <time>2016-05-22T11:34:57Z</time>
      </trkpt>
      <trkpt lat="43.11396" lon="5.76327">
        <ele>1.1</ele>
        <time>2016-05-22T11:35:13Z</time>
      </trkpt>
      <trkpt lat="43.11425" lon="5.76286">
        <ele>0.62</ele>
        <time>2016-05-22T11:35:28Z</time>
      </trkpt>
      <trkpt lat="43.1146" lon="5.76278">
        <ele>0.62</ele>
        <time>2016-05-22T11:35:40Z</time>
      </trkpt>
      <trkpt lat="43.1151" lon="5.76265">
        <ele>1.1</ele>
        <time>2016-05-22T11:35:55Z</time>
      </trkpt>
      <trkpt lat="43.11551" lon="5.76259">
        <ele>0.14</ele>
        <time>2016-05-22T11:36:07Z</time>
      </trkpt>
      <trkpt lat="43.11611" lon="5.76239">
        <ele>0.14</ele>
        <time>2016-05-22T11:36:25Z</time>
      </trkpt>
      <trkpt lat="43.11674" lon="5.76225">
        <ele>-0.34</ele>
        <time>2016-05-22T11:36:44Z</time>
      </trkpt>
      <trkpt lat="43.11734" lon="5.76217">
        <ele>-0.34</ele>
        <time>2016-05-22T11:37:02Z</time>
      </trkpt>
      <trkpt lat="43.11799" lon="5.76216">
        <ele>0.14</ele>
        <time>2016-05-22T11:37:21Z</time>
      </trkpt>
      <trkpt lat="43.11856" lon="5.76212">
        <ele>0.14</ele>
        <time>2016-05-22T11:37:37Z</time>
      </trkpt>
      <trkpt lat="43.11912" lon="5.76205">
        <ele>0.14</ele>
        <time>2016-05-22T11:37:54Z</time>
      </trkpt>
      <trkpt lat="43.11965" lon="5.76191">
        <ele>-0.34</ele>
        <time>2016-05-22T11:38:11Z</time>
      </trkpt>
      <trkpt lat="43.12029" lon="5.76179">
        <ele>-0.82</ele>
        <time>2016-05-22T11:38:33Z</time>
      </trkpt>
      <trkpt lat="43.12085" lon="5.76169">
        <ele>-1.3</ele>
        <time>2016-05-22T11:38:52Z</time>
      </trkpt>
      <trkpt lat="43.12144" lon="5.76156">
        <ele>-0.82</ele>
        <time>2016-05-22T11:39:13Z</time>
      </trkpt>
      <trkpt lat="43.12185" lon="5.76144">
        <ele>-1.3</ele>
        <time>2016-05-22T11:39:28Z</time>
      </trkpt>
      <trkpt lat="43.1224" lon="5.76135">
        <ele>-1.3</ele>
        <time>2016-05-22T11:39:48Z</time>
      </trkpt>
      <trkpt lat="43.1231" lon="5.76129">
        <ele>-1.3</ele>
        <time>2016-05-22T11:40:11Z</time>
      </trkpt>
      <trkpt lat="43.1239" lon="5.76122">
        <ele>-0.34</ele>
        <time>2016-05-22T11:40:36Z</time>
      </trkpt>
      <trkpt lat="43.12456" lon="5.76114">
        <ele>0.62</ele>
        <time>2016-05-22T11:40:57Z</time>
      </trkpt>
      <trkpt lat="43.12527" lon="5.76107">
        <ele>1.1</ele>
        <time>2016-05-22T11:41:22Z</time>
      </trkpt>
      <trkpt lat="43.12579" lon="5.76097">
        <ele>0.62</ele>
        <time>2016-05-22T11:41:41Z</time>
      </trkpt>
      <trkpt lat="43.12639" lon="5.76091">
        <ele>1.1</ele>
        <time>2016-05-22T11:42:02Z</time>
      </trkpt>
      <trkpt lat="43.12715" lon="5.76079">
        <ele>1.1</ele>
        <time>2016-05-22T11:42:27Z</time>
      </trkpt>
      <trkpt lat="43.12769" lon="5.7607">
        <ele>0.62</ele>
        <time>2016-05-22T11:42:45Z</time>
      </trkpt>
      <trkpt lat="43.12825" lon="5.76071">
        <ele>0.62</ele>
        <time>2016-05-22T11:43:03Z</time>
      </trkpt>
      <trkpt lat="43.12881" lon="5.76064">
        <ele>0.14</ele>
        <time>2016-05-22T11:43:22Z</time>
      </trkpt>
      <trkpt lat="43.12933" lon="5.76052">
        <ele>0.62</ele>
        <time>2016-05-22T11:43:40Z</time>
      </trkpt>
      <trkpt lat="43.12976" lon="5.76045">
        <ele>1.1</ele>
        <time>2016-05-22T11:43:56Z</time>
      </trkpt>
      <trkpt lat="43.13022" lon="5.76036">
        <ele>0.14</ele>
        <time>2016-05-22T11:44:14Z</time>
      </trkpt>
      <trkpt lat="43.13069" lon="5.76027">
        <ele>0.14</ele>
        <time>2016-05-22T11:44:31Z</time>
      </trkpt>
      <trkpt lat="43.13127" lon="5.76014">
        <ele>0.62</ele>
        <time>2016-05-22T11:44:50Z</time>
      </trkpt>
      <trkpt lat="43.13186" lon="5.76006">
        <ele>1.1</ele>
        <time>2016-05-22T11:45:09Z</time>
      </trkpt>
      <trkpt lat="43.1325" lon="5.75999">
        <ele>1.1</ele>
        <time>2016-05-22T11:45:29Z</time>
      </trkpt>
      <trkpt lat="43.13295" lon="5.75997">
        <ele>1.1</ele>
        <time>2016-05-22T11:45:44Z</time>
      </trkpt>
      <trkpt lat="43.13345" lon="5.75994">
        <ele>0.62</ele>
        <time>2016-05-22T11:46:03Z</time>
      </trkpt>
      <trkpt lat="43.13399" lon="5.75998">
        <ele>0.62</ele>
        <time>2016-05-22T11:46:24Z</time>
      </trkpt>
      <trkpt lat="43.13424" lon="5.76028">
        <ele>1.58</ele>
        <time>2016-05-22T11:46:39Z</time>
      </trkpt>
      <trkpt lat="43.13433" lon="5.7606">
        <ele>1.58</ele>
        <time>2016-05-22T11:46:55Z</time>
      </trkpt>
      <trkpt lat="43.1343" lon="5.76092">
        <ele>2.06</ele>
        <time>2016-05-22T11:47:14Z</time>
      </trkpt>
      <trkpt lat="43.13429" lon="5.76119">
        <ele>2.06</ele>
        <time>2016-05-22T11:47:33Z</time>
      </trkpt>
      <trkpt lat="43.13421" lon="5.76142">
        <ele>2.06</ele>
        <time>2016-05-22T11:47:49Z</time>
      </trkpt>
      <trkpt lat="43.13406" lon="5.76163">
        <ele>1.58</ele>
        <time>2016-05-22T11:48:13Z</time>
      </trkpt>
      <trkpt lat="43.13388" lon="5.76182">
        <ele>2.06</ele>
        <time>2016-05-22T11:48:37Z</time>
      </trkpt>
      <trkpt lat="43.13379" lon="5.762">
        <ele>1.1</ele>
        <time>2016-05-22T11:48:52Z</time>
      </trkpt>
      <trkpt lat="43.13364" lon="5.76233">
        <ele>0.62</ele>
        <time>2016-05-22T11:49:15Z</time>
      </trkpt>
      <trkpt lat="43.13354" lon="5.7627">
        <ele>0.62</ele>
        <time>2016-05-22T11:49:31Z</time>
      </trkpt>
      <trkpt lat="43.1334" lon="5.76312">
        <ele>1.1</ele>
        <time>2016-05-22T11:49:48Z</time>
      </trkpt>
      <trkpt lat="43.13324" lon="5.76352">
        <ele>1.1</ele>
        <time>2016-05-22T11:50:07Z</time>
      </trkpt>
      <trkpt lat="43.1331" lon="5.76383">
        <ele>1.1</ele>
        <time>2016-05-22T11:50:26Z</time>
      </trkpt>
      <trkpt lat="43.13304" lon="5.764">
        <ele>1.58</ele>
        <time>2016-05-22T11:50:37Z</time>
      </trkpt>
      <trkpt lat="43.13297" lon="5.76417">
        <ele>2.06</ele>
        <time>2016-05-22T11:50:51Z</time>
      </trkpt>
      <trkpt lat="43.13289" lon="5.7643">
        <ele>2.54</ele>
        <time>2016-05-22T11:51:07Z</time>
      </trkpt>
      <trkpt lat="43.13282" lon="5.76447">
        <ele>1.1</ele>
        <time>2016-05-22T11:51:25Z</time>
      </trkpt>
      <trkpt lat="43.1328" lon="5.76458">
        <ele>0.62</ele>
        <time>2016-05-22T11:51:40Z</time>
      </trkpt>
      <trkpt lat="43.13275" lon="5.76471">
        <ele>-0.82</ele>
        <time>2016-05-22T11:51:57Z</time>
      </trkpt>
      <trkpt lat="43.13273" lon="5.7648">
        <ele>-0.82</ele>
        <time>2016-05-22T11:52:11Z</time>
      </trkpt>
      <trkpt lat="43.13267" lon="5.76489">
        <ele>0.62</ele>
        <time>2016-05-22T11:52:27Z</time>
      </trkpt>
      <trkpt lat="43.13261" lon="5.76496">
        <ele>0.62</ele>
        <time>2016-05-22T11:52:42Z</time>
      </trkpt>
      <trkpt lat="43.13257" lon="5.76502">
        <ele>-0.82</ele>
        <time>2016-05-22T11:52:53Z</time>
      </trkpt>
      <trkpt lat="43.13252" lon="5.76511">
        <ele>-1.3</ele>
        <time>2016-05-22T11:53:05Z</time>
      </trkpt>
      <trkpt lat="43.13246" lon="5.76522">
        <ele>-1.79</ele>
        <time>2016-05-22T11:53:20Z</time>
      </trkpt>
      <trkpt lat="43.13243" lon="5.7653">
        <ele>-2.27</ele>
        <time>2016-05-22T11:53:29Z</time>
      </trkpt>
      <trkpt lat="43.13239" lon="5.7654">
        <ele>-1.79</ele>
        <time>2016-05-22T11:53:39Z</time>
      </trkpt>
      <trkpt lat="43.13236" lon="5.76549">
        <ele>-2.27</ele>
        <time>2016-05-22T11:53:50Z</time>
      </trkpt>
      <trkpt lat="43.13231" lon="5.76559">
        <ele>-2.27</ele>
        <time>2016-05-22T11:54:00Z</time>
      </trkpt>
      <trkpt lat="43.13223" lon="5.76561">
        <ele>-1.3</ele>
        <time>2016-05-22T11:54:12Z</time>
      </trkpt>
      <trkpt lat="43.1322" lon="5.76559">
        <ele>-1.3</ele>
        <time>2016-05-22T11:54:16Z</time>
      </trkpt>
      <trkpt lat="43.13209" lon="5.76539">
        <ele>-0.34</ele>
        <time>2016-05-22T11:54:32Z</time>
      </trkpt>
      <trkpt lat="43.13201" lon="5.76513">
        <ele>1.1</ele>
        <time>2016-05-22T11:54:45Z</time>
      </trkpt>
      <trkpt lat="43.13186" lon="5.76477">
        <ele>3.02</ele>
        <time>2016-05-22T11:55:02Z</time>
      </trkpt>
      <trkpt lat="43.13164" lon="5.7642">
        <ele>1.58</ele>
        <time>2016-05-22T11:55:26Z</time>
      </trkpt>
      <trkpt lat="43.13136" lon="5.76362">
        <ele>2.06</ele>
        <time>2016-05-22T11:55:52Z</time>
      </trkpt>
      <trkpt lat="43.13113" lon="5.76311">
        <ele>0.14</ele>
        <time>2016-05-22T11:56:14Z</time>
      </trkpt>
      <trkpt lat="43.13095" lon="5.7626">
        <ele>1.1</ele>
        <time>2016-05-22T11:56:37Z</time>
      </trkpt>
      <trkpt lat="43.13097" lon="5.76208">
        <ele>0.62</ele>
        <time>2016-05-22T11:57:00Z</time>
      </trkpt>
      <trkpt lat="43.13105" lon="5.76161">
        <ele>0.62</ele>
        <time>2016-05-22T11:57:20Z</time>
      </trkpt>
      <trkpt lat="43.13113" lon="5.76116">
        <ele>0.14</ele>
        <time>2016-05-22T11:57:40Z</time>
      </trkpt>
      <trkpt lat="43.13131" lon="5.76091">
        <ele>0.62</ele>
        <time>2016-05-22T11:57:57Z</time>
      </trkpt>
      <trkpt lat="43.13153" lon="5.76062">
        <ele>1.1</ele>
        <time>2016-05-22T11:58:18Z</time>
      </trkpt>
      <trkpt lat="43.13172" lon="5.76034">
        <ele>0.62</ele>
        <time>2016-05-22T11:58:35Z</time>
      </trkpt>
      <trkpt lat="43.13196" lon="5.75987">
        <ele>0.62</ele>
        <time>2016-05-22T11:59:01Z</time>
      </trkpt>
      <trkpt lat="43.13215" lon="5.75951">
        <ele>0.62</ele>
        <time>2016-05-22T11:59:22Z</time>
      </trkpt>
      <trkpt lat="43.13237" lon="5.75922">
        <ele>0.62</ele>
        <time>2016-05-22T11:59:41Z</time>
      </trkpt>
      <trkpt lat="43.13258" lon="5.75892">
        <ele>2.06</ele>
        <time>2016-05-22T12:00:00Z</time>
      </trkpt>
      <trkpt lat="43.13289" lon="5.75861">
        <ele>-1.79</ele>
        <time>2016-05-22T12:00:23Z</time>
      </trkpt>
      <trkpt lat="43.13317" lon="5.75855">
        <ele>-2.75</ele>
        <time>2016-05-22T12:00:43Z</time>
      </trkpt>
      <trkpt lat="43.13332" lon="5.75878">
        <ele>0.14</ele>
        <time>2016-05-22T12:01:02Z</time>
      </trkpt>
      <trkpt lat="43.13324" lon="5.75892">
        <ele>0.62</ele>
        <time>2016-05-22T12:01:17Z</time>
      </trkpt>
      <trkpt lat="43.13311" lon="5.75898">
        <ele>0.62</ele>
        <time>2016-05-22T12:01:31Z</time>
      </trkpt>
      <trkpt lat="43.13302" lon="5.75891">
        <ele>0.62</ele>
        <time>2016-05-22T12:01:42Z</time>
      </trkpt>
      <trkpt lat="43.13297" lon="5.75876">
        <ele>-0.34</ele>
        <time>2016-05-22T12:01:52Z</time>
      </trkpt>
      <trkpt lat="43.13305" lon="5.75834">
        <ele>-1.3</ele>
        <time>2016-05-22T12:02:13Z</time>
      </trkpt>
      <trkpt lat="43.13328" lon="5.75793">
        <ele>0.62</ele>
        <time>2016-05-22T12:02:33Z</time>
      </trkpt>
      <trkpt lat="43.13327" lon="5.75723">
        <ele>3.5</ele>
        <time>2016-05-22T12:02:59Z</time>
      </trkpt>
      <trkpt lat="43.1333" lon="5.75659">
        <ele>3.5</ele>
        <time>2016-05-22T12:03:24Z</time>
      </trkpt>
      <trkpt lat="43.13362" lon="5.75625">
        <ele>3.98</ele>
        <time>2016-05-22T12:03:51Z</time>
      </trkpt>
      <trkpt lat="43.13385" lon="5.75587">
        <ele>-0.82</ele>
        <time>2016-05-22T12:04:16Z</time>
      </trkpt>
      <trkpt lat="43.13401" lon="5.75559">
        <ele>2.06</ele>
        <time>2016-05-22T12:04:42Z</time>
      </trkpt>
      <trkpt lat="43.1342" lon="5.7552">
        <ele>3.5</ele>
        <time>2016-05-22T12:05:18Z</time>
      </trkpt>
      <trkpt lat="43.13443" lon="5.75483">
        <ele>3.02</ele>
        <time>2016-05-22T12:05:44Z</time>
      </trkpt>
      <trkpt lat="43.13455" lon="5.75463">
        <ele>1.1</ele>
        <time>2016-05-22T12:06:08Z</time>
      </trkpt>
      <trkpt lat="43.13458" lon="5.75458">
        <ele>2.06</ele>
        <time>2016-05-22T12:06:32Z</time>
      </trkpt>
      <trkpt lat="43.13469" lon="5.75479">
        <ele>3.5</ele>
        <time>2016-05-22T12:06:58Z</time>
      </trkpt>
      <trkpt lat="43.13481" lon="5.75498">
        <ele>4.46</ele>
        <time>2016-05-22T12:07:25Z</time>
      </trkpt>
      <trkpt lat="43.13476" lon="5.7548">
        <ele>5.42</ele>
        <time>2016-05-22T12:07:52Z</time>
      </trkpt>
      <trkpt lat="43.13482" lon="5.75494">
        <ele>5.91</ele>
        <time>2016-05-22T12:08:18Z</time>
      </trkpt>
      <trkpt lat="43.13494" lon="5.75508">
        <ele>6.39</ele>
        <time>2016-05-22T12:08:49Z</time>
      </trkpt>
      <trkpt lat="43.13494" lon="5.75508">
        <ele>5.42</ele>
        <time>2016-05-22T12:09:12Z</time>
      </trkpt>
      <trkpt lat="43.13497" lon="5.755">
        <ele>7.35</ele>
        <time>2016-05-22T12:09:32Z</time>
      </trkpt>
      <trkpt lat="43.13498" lon="5.75513">
        <ele>6.39</ele>
        <time>2016-05-22T12:09:58Z</time>
      </trkpt>
      <trkpt lat="43.13498" lon="5.75513">
        <ele>5.91</ele>
        <time>2016-05-22T12:10:23Z</time>
      </trkpt>
      <trkpt lat="43.13496" lon="5.75513">
        <ele>5.91</ele>
        <time>2016-05-22T12:10:55Z</time>
      </trkpt>
      <trkpt lat="43.13496" lon="5.75513">
        <ele>5.91</ele>
        <time>2016-05-22T12:11:20Z</time>
      </trkpt>
      <trkpt lat="43.13496" lon="5.75513">
        <ele>4.94</ele>
        <time>2016-05-22T12:11:49Z</time>
      </trkpt>
      <trkpt lat="43.13496" lon="5.75514">
        <ele>3.98</ele>
        <time>2016-05-22T12:12:18Z</time>
      </trkpt>
      <trkpt lat="43.13495" lon="5.75512">
        <ele>3.02</ele>
        <time>2016-05-22T12:12:38Z</time>
      </trkpt>
      <trkpt lat="43.13495" lon="5.75512">
        <ele>2.06</ele>
        <time>2016-05-22T12:13:06Z</time>
      </trkpt>
      <trkpt lat="43.13495" lon="5.75513">
        <ele>1.1</ele>
        <time>2016-05-22T12:13:31Z</time>
      </trkpt>
      <trkpt lat="43.13494" lon="5.75513">
        <ele>0.62</ele>
        <time>2016-05-22T12:13:57Z</time>
      </trkpt>
      <trkpt lat="43.13494" lon="5.75513">
        <ele>0.14</ele>
        <time>2016-05-22T12:14:16Z</time>
      </trkpt>
      <trkpt lat="43.13494" lon="5.75513">
        <ele>0.14</ele>
        <time>2016-05-22T12:14:43Z</time>
      </trkpt>
      <trkpt lat="43.13494" lon="5.75513">
        <ele>0.14</ele>
        <time>2016-05-22T12:15:09Z</time>
      </trkpt>
      <trkpt lat="43.13493" lon="5.75513">
        <ele>0.14</ele>
        <time>2016-05-22T12:15:36Z</time>
      </trkpt>
      <trkpt lat="43.13493" lon="5.75513">
        <ele>0.14</ele>
        <time>2016-05-22T12:16:04Z</time>
      </trkpt>
      <trkpt lat="43.13493" lon="5.75513">
        <ele>0.14</ele>
        <time>2016-05-22T12:16:36Z</time>
      </trkpt>
      <trkpt lat="43.13493" lon="5.75513">
        <ele>0.14</ele>
        <time>2016-05-22T12:17:09Z</time>
      </trkpt>
      <trkpt lat="43.13493" lon="5.75512">
        <ele>0.14</ele>
        <time>2016-05-22T12:17:47Z</time>
      </trkpt>
      <trkpt lat="43.13493" lon="5.75512">
        <ele>0.14</ele>
        <time>2016-05-22T12:18:19Z</time>
      </trkpt>
      <trkpt lat="43.13493" lon="5.75512">
        <ele>0.14</ele>
        <time>2016-05-22T12:18:49Z</time>
      </trkpt>
      <trkpt lat="43.13493" lon="5.75512">
        <ele>0.14</ele>
        <time>2016-05-22T12:19:21Z</time>
      </trkpt>
      <trkpt lat="43.13494" lon="5.75512">
        <ele>0.14</ele>
        <time>2016-05-22T12:19:39Z</time>
      </trkpt>
      <trkpt lat="43.13495" lon="5.75512">
        <ele>-0.34</ele>
        <time>2016-05-22T12:20:04Z</time>
      </trkpt>
      <trkpt lat="43.13494" lon="5.75512">
        <ele>-0.34</ele>
        <time>2016-05-22T12:20:26Z</time>
      </trkpt>
      <trkpt lat="43.13492" lon="5.75512">
        <ele>0.14</ele>
        <time>2016-05-22T12:20:45Z</time>
      </trkpt>
      <trkpt lat="43.13493" lon="5.75512">
        <ele>0.14</ele>
        <time>2016-05-22T12:21:01Z</time>
      </trkpt>
      <trkpt lat="43.13493" lon="5.75512">
        <ele>0.14</ele>
        <time>2016-05-22T12:21:03Z</time>
      </trkpt>
    </trkseg>
  </trk>
</gpx>